Time,TemperatureF,DewpointF,PressureIn,WindDirection,WindDirectionDegrees,WindSpeedMPH,WindSpeedGustMPH,Humidity,HourlyPrecipIn,Conditions,Clouds,dailyrainin,SoftwareType,DateUTC
2013-04-18 06:27:00,46.0,16.3,30.05,ESE,112,0.6,0.0,30,0.00,CLR,,0.00,WeatherDisplay:10.37,2013-04-18 13:27:00,
2013-04-18 06:28:00,46.0,16.3,30.05,ESE,112,0.6,5.2,30,0.00,CLR,,0.00,WeatherDisplay:10.37,2013-04-18 13:28:00,
2013-04-18 06:33:00,30.7,24.1,30.02,ESE,112,0.2,1.8,76,0.00,CLR,,0.00,WeatherDisplay:10.37,2013-04-18 13:33:00,
2013-04-18 06:38:00,30.6,23.9,30.02,South,180,0.3,2.3,76,0.00,CLR,,0.00,WeatherDisplay:10.37,2013-04-18 13:38:00,
2013-04-18 06:39:00,30.7,24.1,30.02,East,90,0.5,2.3,76,0.00,CLR,,0.00,WeatherDisplay:10.37,2013-04-18 13:39:00,
2013-04-18 06:43:00,30.6,23.9,30.03,ESE,112,0.6,0.0,76,0.00,CLR,,0.00,WeatherDisplay:10.37,2013-04-18 13:43:00,
2013-04-18 06:45:00,30.6,23.9,30.03,NE,45,0.6,1.1,76,0.00,CLR,,0.00,WeatherDisplay:10.37,2013-04-18 13:45:00,
2013-04-18 06:48:00,30.7,24.1,30.03,ENE,68,0.7,2.3,76,0.00,CLR,,0.00,WeatherDisplay:10.37,2013-04-18 13:48:00,
2013-04-18 06:49:00,30.7,24.4,30.03,ENE,68,0.8,2.3,77,0.00,CLR,,0.00,WeatherDisplay:10.37,2013-04-18 13:49:00,
2013-04-18 06:50:00,30.7,24.4,30.03,ENE,77,1.0,3.0,77,0.00,CLR,CLR,0.00,WeatherDisplay:10.37,2013-04-18 13:50:00,
2013-04-18 06:53:00,31.1,24.7,30.03,SSW,202,1.0,2.3,77,0.00,CLR,,0.00,WeatherDisplay:10.37,2013-04-18 13:53:00,
2013-04-18 06:54:00,31.3,24.9,30.03,ESE,112,1.1,2.3,77,0.00,CLR,,0.00,WeatherDisplay:10.37,2013-04-18 13:54:00,
2013-04-18 06:55:00,31.3,24.9,30.03,ESE,112,1.1,2.3,77,0.00,CLR,,0.00,WeatherDisplay:10.37,2013-04-18 13:55:00,
2013-04-18 06:58:00,31.5,25.1,30.03,SSE,158,1.8,4.6,77,0.00,CLR,,0.00,WeatherDisplay:10.37,2013-04-18 13:58:00,
2013-04-18 06:59:00,31.5,25.1,30.03,SSE,158,1.8,4.6,77,0.00,CLR,,0.00,WeatherDisplay:10.37,2013-04-18 13:59:00,
2013-04-18 07:00:00,31.5,25.1,30.03,SSE,158,1.8,2.3,77,0.00,CLR,,0.00,WeatherDisplay:10.37,2013-04-18 14:00:00,
2013-04-18 07:03:00,31.8,25.4,30.03,ESE,112,2.1,3.5,77,0.00,CLR,,0.00,WeatherDisplay:10.37,2013-04-18 14:03:00,
2013-04-18 07:04:00,31.8,25.4,30.03,ESE,112,2.1,3.5,77,0.00,CLR,,0.00,WeatherDisplay:10.37,2013-04-18 14:04:00,
2013-04-18 07:05:00,32.2,26.1,30.03,NE,45,2.2,3.5,78,0.00,CLR,,0.00,WeatherDisplay:10.37,2013-04-18 14:05:00,
2013-04-18 07:09:00,33.4,27.0,30.03,SSE,158,1.8,3.5,77,0.00,CLR,,0.00,WeatherDisplay:10.37,2013-04-18 14:09:00,
2013-04-18 07:10:00,33.8,27.4,30.03,ESE,112,2.0,2.3,77,0.00,CLR,,0.00,WeatherDisplay:10.37,2013-04-18 14:10:00,
2013-04-18 07:14:00,34.5,27.4,30.03,WNW,292,2.0,3.0,75,0.00,CLR,,0.00,WeatherDisplay:10.37,2013-04-18 14:14:00,
2013-04-18 07:15:00,34.5,27.4,30.03,WNW,292,2.0,3.5,75,0.00,CLR,,0.00,WeatherDisplay:10.37,2013-04-18 14:15:00,
2013-04-18 07:19:00,35.1,27.6,30.03,SE,135,2.2,3.5,74,0.00,CLR,,0.00,WeatherDisplay:10.37,2013-04-18 14:19:00,
2013-04-18 07:20:00,35.4,27.6,30.03,ESE,112,2.2,3.5,73,0.00,CLR,,0.00,WeatherDisplay:10.37,2013-04-18 14:20:00,
2013-04-18 07:24:00,36.5,28.3,30.03,South,180,2.0,2.3,72,0.00,CLR,,0.00,WeatherDisplay:10.37,2013-04-18 14:24:00,
2013-04-18 07:25:00,36.5,28.3,30.03,South,180,2.0,2.3,72,0.00,CLR,,0.00,WeatherDisplay:10.37,2013-04-18 14:25:00,
2013-04-18 07:29:00,37.4,28.2,30.03,NNW,338,1.4,2.3,69,0.00,CLR,,0.00,WeatherDisplay:10.37,2013-04-18 14:29:00,
2013-04-18 07:30:00,37.4,28.2,30.03,NNW,338,1.4,2.3,69,0.00,CLR,,0.00,WeatherDisplay:10.37,2013-04-18 14:30:00,
2013-04-18 07:31:00,37.9,28.3,30.03,South,180,1.4,2.3,68,0.00,CLR,,0.00,WeatherDisplay:10.37,2013-04-18 14:31:00,
2013-04-18 07:35:00,39.0,27.8,30.03,SSE,168,1.0,2.0,64,0.00,CLR,CLR,0.00,WeatherDisplay:10.37,2013-04-18 14:35:00,
2013-04-18 07:36:00,39.7,27.8,30.03,NNW,338,1.1,1.1,62,0.00,CLR,,0.00,WeatherDisplay:10.37,2013-04-18 14:36:00,
2013-04-18 07:40:00,40.1,27.7,30.03,NNW,338,1.1,1.1,61,0.00,CLR,,0.00,WeatherDisplay:10.37,2013-04-18 14:40:00,
2013-04-18 07:41:00,41.0,28.6,30.03,SE,135,0.9,1.1,61,0.00,CLR,,0.00,WeatherDisplay:10.37,2013-04-18 14:41:00,
2013-04-18 07:43:00,41.4,28.1,30.04,NE,45,0.7,1.1,59,0.00,CLR,,0.00,WeatherDisplay:10.37,2013-04-18 14:43:00,
2013-04-18 07:45:00,41.5,27.8,30.04,North,11,1.0,2.0,58,0.00,CLR,CLR,0.00,WeatherDisplay:10.37,2013-04-18 14:45:00,
2013-04-18 07:46:00,42.1,28.4,30.04,SE,135,0.6,1.1,58,0.00,CLR,,0.00,WeatherDisplay:10.37,2013-04-18 14:46:00,
2013-04-18 07:48:00,42.1,28.4,30.04,SE,135,0.6,2.9,58,0.00,CLR,,0.00,WeatherDisplay:10.37,2013-04-18 14:48:00,
2013-04-18 07:50:00,42.4,28.7,30.04,South,180,0.7,2.5,58,0.00,CLR,,0.00,WeatherDisplay:10.37,2013-04-18 14:50:00,
2013-04-18 07:51:00,42.4,28.7,30.04,South,180,0.7,1.1,58,0.00,CLR,,0.00,WeatherDisplay:10.37,2013-04-18 14:51:00,
2013-04-18 07:52:00,42.4,28.7,30.04,South,180,0.7,2.5,58,0.00,CLR,,0.00,WeatherDisplay:10.37,2013-04-18 14:52:00,
2013-04-18 07:53:00,42.6,28.9,30.04,ESE,112,1.0,2.3,58,0.00,CLR,,0.00,WeatherDisplay:10.37,2013-04-18 14:53:00,
2013-04-18 07:55:00,42.8,29.0,30.04,ESE,112,1.1,3.5,58,0.00,CLR,,0.00,WeatherDisplay:10.37,2013-04-18 14:55:00,
2013-04-18 07:56:00,42.8,29.0,30.04,ESE,112,1.1,3.5,58,0.00,CLR,,0.00,WeatherDisplay:10.37,2013-04-18 14:56:00,
2013-04-18 07:58:00,42.8,29.0,30.04,SSE,158,1.3,3.5,58,0.00,CLR,,0.00,WeatherDisplay:10.37,2013-04-18 14:58:00,
2013-04-18 08:00:00,43.0,28.8,30.04,SSE,158,1.3,2.0,57,0.00,CLR,,0.00,WeatherDisplay:10.37,2013-04-18 15:00:00,
2013-04-18 08:01:00,43.0,28.8,30.04,SSE,158,1.3,2.3,57,0.00,CLR,,0.00,WeatherDisplay:10.37,2013-04-18 15:01:00,
2013-04-18 08:03:00,43.2,28.9,30.04,West,270,1.1,2.3,57,0.00,CLR,,0.00,WeatherDisplay:10.37,2013-04-18 15:03:00,
2013-04-18 08:05:00,43.5,29.3,30.04,SSE,158,1.0,1.1,57,0.00,CLR,,0.00,WeatherDisplay:10.37,2013-04-18 15:05:00,
2013-04-18 08:08:00,43.5,29.3,30.04,NNE,22,0.9,2.3,57,0.00,CLR,,0.00,WeatherDisplay:10.37,2013-04-18 15:08:00,
2013-04-18 08:09:00,43.7,29.5,30.04,South,180,0.8,2.3,57,0.00,CLR,,0.00,WeatherDisplay:10.37,2013-04-18 15:09:00,
2013-04-18 08:11:00,44.1,29.4,30.04,North,0,0.8,2.3,56,0.00,CLR,,0.00,WeatherDisplay:10.37,2013-04-18 15:11:00,
2013-04-18 08:13:00,44.4,30.1,30.04,South,180,0.9,3.5,57,0.00,CLR,,0.00,WeatherDisplay:10.37,2013-04-18 15:13:00,
2013-04-18 08:14:00,44.6,30.3,30.04,ESE,112,0.8,3.5,57,0.00,CLR,,0.00,WeatherDisplay:10.37,2013-04-18 15:14:00,
2013-04-18 08:16:00,44.6,29.9,30.04,South,180,0.7,0.0,56,0.00,CLR,,0.00,WeatherDisplay:10.37,2013-04-18 15:16:00,
2013-04-18 08:18:00,45.0,30.2,30.04,SW,225,0.8,2.3,56,0.00,CLR,,0.00,WeatherDisplay:10.37,2013-04-18 15:18:00,
2013-04-18 08:19:00,45.0,30.2,30.04,SW,225,0.8,2.3,56,0.00,CLR,,0.00,WeatherDisplay:10.37,2013-04-18 15:19:00,
2013-04-18 08:22:00,45.3,30.5,30.04,NW,315,0.9,2.3,56,0.00,CLR,,0.00,WeatherDisplay:10.37,2013-04-18 15:22:00,
2013-04-18 08:24:00,45.3,30.5,30.04,NW,315,0.9,0.0,56,0.00,CLR,,0.00,WeatherDisplay:10.37,2013-04-18 15:24:00,
2013-04-18 08:25:00,45.5,30.7,30.04,SE,135,0.9,1.1,56,0.00,CLR,,0.00,WeatherDisplay:10.37,2013-04-18 15:25:00,
2013-04-18 08:27:00,45.5,30.7,30.04,ENE,68,1.1,1.1,56,0.00,CLR,,0.00,WeatherDisplay:10.37,2013-04-18 15:27:00,
2013-04-18 08:29:00,45.5,30.7,30.04,NNW,338,1.1,1.1,56,0.00,CLR,,0.00,WeatherDisplay:10.37,2013-04-18 15:29:00,
2013-04-18 08:30:00,45.5,30.3,30.04,SSW,202,1.0,0.0,55,0.00,CLR,,0.00,WeatherDisplay:10.37,2013-04-18 15:30:00,
2013-04-18 08:33:00,45.3,29.6,30.04,ESE,112,1.0,3.5,54,0.00,CLR,,0.00,WeatherDisplay:10.37,2013-04-18 15:33:00,
2013-04-18 08:34:00,45.3,29.6,30.04,ESE,112,1.0,2.3,54,0.00,CLR,,0.00,WeatherDisplay:10.37,2013-04-18 15:34:00,
2013-04-18 08:35:00,45.1,29.5,30.04,North,0,1.1,2.3,54,0.00,CLR,,0.00,WeatherDisplay:10.37,2013-04-18 15:35:00,
2013-04-18 08:38:00,45.3,29.6,30.04,North,0,1.0,1.1,54,0.00,CLR,,0.00,WeatherDisplay:10.37,2013-04-18 15:38:00,
2013-04-18 08:39:00,45.3,29.6,30.04,North,0,1.0,1.1,54,0.00,CLR,,0.00,WeatherDisplay:10.37,2013-04-18 15:39:00,
2013-04-18 08:40:00,45.7,30.4,30.04,NNE,22,1.0,1.1,55,0.00,CLR,,0.00,WeatherDisplay:10.37,2013-04-18 15:40:00,
2013-04-18 08:43:00,46.0,30.3,30.05,SSW,202,0.8,2.3,54,0.00,CLR,,0.00,WeatherDisplay:10.37,2013-04-18 15:43:00,
2013-04-18 08:44:00,46.2,30.0,30.05,West,270,0.6,2.3,53,0.00,CLR,,0.00,WeatherDisplay:10.37,2013-04-18 15:44:00,
2013-04-18 08:45:00,46.2,30.0,30.05,West,270,0.6,2.3,53,0.00,CLR,,0.00,WeatherDisplay:10.37,2013-04-18 15:45:00,
2013-04-18 08:49:00,46.2,30.0,30.05,ENE,68,0.7,3.5,53,0.00,CLR,,0.00,WeatherDisplay:10.37,2013-04-18 15:49:00,
2013-04-18 08:50:00,46.2,30.0,30.05,ENE,68,0.7,3.5,53,0.00,CLR,,0.00,WeatherDisplay:10.37,2013-04-18 15:50:00,
2013-04-18 08:52:00,45.9,29.7,30.05,ESE,112,0.7,1.1,53,0.00,CLR,,0.00,WeatherDisplay:10.37,2013-04-18 15:52:00,
2013-04-18 08:54:00,46.0,30.3,30.05,NNW,338,0.9,0.0,54,0.00,CLR,,0.00,WeatherDisplay:10.37,2013-04-18 15:54:00,
2013-04-18 08:55:00,46.0,30.3,30.05,NNW,338,0.9,0.0,54,0.00,CLR,,0.00,WeatherDisplay:10.37,2013-04-18 15:55:00,
2013-04-18 08:57:00,46.2,30.0,30.05,SE,135,1.1,3.5,53,0.00,CLR,,0.00,WeatherDisplay:10.37,2013-04-18 15:57:00,
2013-04-18 08:59:00,45.9,29.7,30.05,East,90,1.1,3.5,53,0.00,CLR,,0.00,WeatherDisplay:10.37,2013-04-18 15:59:00,
2013-04-18 09:00:00,45.9,29.2,30.05,WSW,248,1.0,0.0,52,0.00,CLR,,0.00,WeatherDisplay:10.37,2013-04-18 16:00:00,
2013-04-18 09:01:00,45.9,29.2,30.05,WSW,248,1.0,0.0,52,0.00,CLR,,0.00,WeatherDisplay:10.37,2013-04-18 16:01:00,
2013-04-18 09:02:00,45.9,29.7,30.04,WSW,248,0.8,0.0,53,0.00,CLR,,0.00,WeatherDisplay:10.37,2013-04-18 16:02:00,
2013-04-18 09:04:00,46.6,30.8,30.04,NE,45,0.7,0.0,54,0.00,CLR,,0.00,WeatherDisplay:10.37,2013-04-18 16:04:00,
2013-04-18 09:06:00,46.6,30.8,30.04,NE,45,0.7,1.6,54,0.00,CLR,,0.00,WeatherDisplay:10.37,2013-04-18 16:06:00,
2013-04-18 09:07:00,46.8,30.0,30.04,ENE,68,0.8,1.1,52,0.00,CLR,,0.00,WeatherDisplay:10.37,2013-04-18 16:07:00,
2013-04-18 09:09:00,46.6,29.9,30.04,NE,45,0.3,1.1,52,0.00,CLR,,0.00,WeatherDisplay:10.37,2013-04-18 16:09:00,
2013-04-18 09:11:00,46.6,29.9,30.04,SSW,202,0.3,0.0,52,0.00,CLR,,0.00,WeatherDisplay:10.37,2013-04-18 16:11:00,
2013-04-18 09:12:00,46.6,30.3,30.04,NNE,22,0.3,0.0,53,0.00,CLR,,0.00,WeatherDisplay:10.37,2013-04-18 16:12:00,
2013-04-18 09:14:00,46.8,30.0,30.04,SE,135,0.6,0.0,52,0.00,CLR,,0.00,WeatherDisplay:10.37,2013-04-18 16:14:00,
2013-04-18 09:16:00,46.9,30.7,30.04,ENE,68,0.5,2.3,53,0.00,CLR,,0.00,WeatherDisplay:10.37,2013-04-18 16:16:00,
2013-04-18 09:17:00,46.9,30.7,30.04,ENE,68,0.5,2.3,53,0.00,CLR,,0.00,WeatherDisplay:10.37,2013-04-18 16:17:00,
2013-04-18 09:18:00,47.7,30.9,30.04,NNE,22,0.5,0.0,52,0.00,CLR,,0.00,WeatherDisplay:10.37,2013-04-18 16:18:00,
2013-04-18 09:19:00,47.7,30.9,30.04,NNE,22,0.5,1.1,52,0.00,CLR,,0.00,WeatherDisplay:10.37,2013-04-18 16:19:00,
2013-04-18 09:20:00,47.7,30.9,30.04,NNE,22,0.5,1.1,52,0.00,CLR,,0.00,WeatherDisplay:10.37,2013-04-18 16:20:00,
2013-04-18 09:21:00,47.7,30.4,30.04,NW,315,0.6,2.3,51,0.00,CLR,,0.00,WeatherDisplay:10.37,2013-04-18 16:21:00,
2013-04-18 09:22:00,47.7,30.9,30.03,SW,225,0.7,2.3,52,0.00,CLR,,0.00,WeatherDisplay:10.37,2013-04-18 16:22:00,
2013-04-18 09:23:00,47.7,30.9,30.03,SW,225,0.7,2.3,52,0.00,CLR,,0.00,WeatherDisplay:10.37,2013-04-18 16:23:00,
2013-04-18 09:25:00,47.7,30.4,30.03,North,0,0.6,2.3,51,0.00,CLR,,0.00,WeatherDisplay:10.37,2013-04-18 16:25:00,
2013-04-18 09:27:00,47.7,30.4,30.03,SSE,158,0.3,0.0,51,0.00,CLR,,0.00,WeatherDisplay:10.37,2013-04-18 16:27:00,
2013-04-18 09:28:00,48.0,31.2,30.03,SW,225,0.3,0.0,52,0.00,CLR,,0.00,WeatherDisplay:10.37,2013-04-18 16:28:00,
2013-04-18 09:30:00,48.0,31.2,30.03,SW,225,0.3,1.1,52,0.00,CLR,,0.00,WeatherDisplay:10.37,2013-04-18 16:30:00,
2013-04-18 09:32:00,48.4,31.1,30.03,NE,45,0.3,2.0,51,0.00,CLR,,0.00,WeatherDisplay:10.37,2013-04-18 16:32:00,
2013-04-18 09:34:00,48.4,31.1,30.03,NE,45,0.3,2.3,51,0.00,CLR,,0.00,WeatherDisplay:10.37,2013-04-18 16:34:00,
2013-04-18 09:35:00,48.2,30.4,30.03,NNW,338,0.3,2.3,50,0.00,CLR,,0.00,WeatherDisplay:10.37,2013-04-18 16:35:00,
2013-04-18 09:37:00,48.4,30.6,30.03,NW,315,0.5,1.1,50,0.00,CLR,,0.00,WeatherDisplay:10.37,2013-04-18 16:37:00,
2013-04-18 09:39:00,48.7,31.4,30.03,SE,135,0.5,1.1,51,0.00,CLR,,0.00,WeatherDisplay:10.37,2013-04-18 16:39:00,
2013-04-18 09:40:00,48.7,31.4,30.03,SE,135,0.5,1.1,51,0.00,CLR,,0.00,WeatherDisplay:10.37,2013-04-18 16:40:00,
2013-04-18 09:42:00,48.7,31.4,30.04,NW,315,0.5,0.0,51,0.00,CLR,,0.00,WeatherDisplay:10.37,2013-04-18 16:42:00,
2013-04-18 09:44:00,49.1,31.7,30.04,South,180,0.3,1.1,51,0.00,CLR,,0.00,WeatherDisplay:10.37,2013-04-18 16:44:00,
2013-04-18 09:45:00,49.1,31.7,30.04,NNE,20,0.0,1.0,51,0.00,CLR,CLR,0.00,WeatherDisplay:10.37,2013-04-18 16:45:00,
2013-04-18 09:47:00,49.5,32.1,30.04,South,180,0.3,1.1,51,0.00,CLR,,0.00,WeatherDisplay:10.37,2013-04-18 16:47:00,
2013-04-18 09:48:00,49.5,32.1,30.04,SE,135,0.3,2.3,51,0.00,CLR,,0.00,WeatherDisplay:10.37,2013-04-18 16:48:00,
2013-04-18 09:49:00,49.5,32.1,30.04,SE,135,0.3,2.3,51,0.00,CLR,,0.00,WeatherDisplay:10.37,2013-04-18 16:49:00,
2013-04-18 09:50:00,49.3,31.4,30.04,ESE,112,0.5,2.3,50,0.00,CLR,,0.00,WeatherDisplay:10.37,2013-04-18 16:50:00,
2013-04-18 09:52:00,48.7,29.9,30.04,South,180,0.5,2.3,48,0.00,CLR,,0.00,WeatherDisplay:10.37,2013-04-18 16:52:00,
2013-04-18 09:53:00,48.7,29.9,30.04,South,180,0.5,2.3,48,0.00,CLR,,0.00,WeatherDisplay:10.37,2013-04-18 16:53:00,
2013-04-18 09:54:00,48.7,30.9,30.04,NW,315,0.6,0.0,50,0.00,CLR,,0.00,WeatherDisplay:10.37,2013-04-18 16:54:00,
2013-04-18 09:55:00,48.7,30.9,30.04,NW,315,0.6,3.5,50,0.00,CLR,,0.00,WeatherDisplay:10.37,2013-04-18 16:55:00,
2013-04-18 09:57:00,48.7,30.4,30.04,ENE,68,0.5,3.5,49,0.00,CLR,,0.00,WeatherDisplay:10.37,2013-04-18 16:57:00,
2013-04-18 09:58:00,48.7,30.4,30.04,ENE,68,0.5,3.5,49,0.00,CLR,,0.00,WeatherDisplay:10.37,2013-04-18 16:58:00,
2013-04-18 09:59:00,48.4,29.6,30.04,NE,45,0.5,0.0,48,0.00,CLR,,0.00,WeatherDisplay:10.37,2013-04-18 16:59:00,
2013-04-18 10:00:00,42.1,34.0,29.99,NNE,23,0.0,0.0,73,0.00,CLR,CLR,0.00,WeatherDisplay:10.37,2013-04-18 17:00:00,
2013-04-18 10:01:00,48.4,29.6,30.04,South,180,0.3,0.0,48,0.00,CLR,,0.00,WeatherDisplay:10.37,2013-04-18 17:01:00,
2013-04-18 10:02:00,48.9,31.1,30.04,NNE,22,0.2,0.0,50,0.00,CLR,,0.00,WeatherDisplay:10.37,2013-04-18 17:02:00,
2013-04-18 10:03:00,48.9,31.1,30.04,NNE,22,0.2,0.0,50,0.00,CLR,,0.00,WeatherDisplay:10.37,2013-04-18 17:03:00,
2013-04-18 10:04:00,48.9,31.1,30.04,NNE,22,0.2,0.0,50,0.00,CLR,,0.00,WeatherDisplay:10.37,2013-04-18 17:04:00,
2013-04-18 10:05:00,42.3,34.2,29.98,North,11,0.0,0.0,73,0.00,CLR,CLR,0.00,WeatherDisplay:10.37,2013-04-18 17:05:00,
2013-04-18 10:07:00,49.8,31.9,30.04,ESE,112,0.5,1.1,50,0.00,CLR,,0.00,WeatherDisplay:10.37,2013-04-18 17:07:00,
2013-04-18 10:09:00,49.6,31.2,30.04,SSE,158,0.6,2.3,49,0.00,CLR,,0.00,WeatherDisplay:10.37,2013-04-18 17:09:00,
2013-04-18 10:10:00,42.1,34.0,29.98,NNW,338,0.0,0.0,73,0.00,CLR,CLR,0.00,WeatherDisplay:10.37,2013-04-18 17:10:00,
2013-04-18 10:12:00,49.6,32.2,30.04,West,270,0.6,1.1,51,0.00,CLR,,0.00,WeatherDisplay:10.37,2013-04-18 17:12:00,
2013-04-18 10:14:00,49.3,30.9,30.04,South,180,0.7,2.3,49,0.00,CLR,,0.00,WeatherDisplay:10.37,2013-04-18 17:14:00,
2013-04-18 10:15:00,42.1,34.0,29.98,NNW,338,0.0,0.0,73,0.00,CLR,CLR,0.00,WeatherDisplay:10.37,2013-04-18 17:15:00,
2013-04-18 10:17:00,49.1,30.2,30.04,SSE,158,0.6,2.3,48,0.00,CLR,,0.00,WeatherDisplay:10.37,2013-04-18 17:17:00,
2013-04-18 10:19:00,49.3,29.9,30.04,South,180,0.5,2.3,47,0.00,CLR,,0.00,WeatherDisplay:10.37,2013-04-18 17:19:00,
2013-04-18 10:20:00,42.6,35.2,29.98,NW,326,0.0,0.0,75,0.00,CLR,CLR,0.00,WeatherDisplay:10.37,2013-04-18 17:20:00,
2013-04-18 10:22:00,49.3,30.9,30.06,ESE,112,0.8,2.3,49,0.00,CLR,,0.00,WeatherDisplay:10.37,2013-04-18 17:22:00,
2013-04-18 10:24:00,49.1,30.2,30.06,ESE,112,1.1,2.3,48,0.00,CLR,,0.00,WeatherDisplay:10.37,2013-04-18 17:24:00,
2013-04-18 10:25:00,42.8,35.1,29.97,NW,312,0.0,0.0,74,0.00,CLR,CLR,0.00,WeatherDisplay:10.37,2013-04-18 17:25:00,
2013-04-18 10:28:00,48.9,30.1,30.06,SSE,158,1.1,1.1,48,0.00,CLR,,0.00,WeatherDisplay:10.37,2013-04-18 17:28:00,
2013-04-18 10:29:00,49.3,30.4,30.06,SE,135,1.1,1.1,48,0.00,CLR,,0.00,WeatherDisplay:10.37,2013-04-18 17:29:00,
2013-04-18 10:30:00,49.3,30.4,30.06,SE,135,1.1,1.1,48,0.00,CLR,,0.00,WeatherDisplay:10.37,2013-04-18 17:30:00,
2013-04-18 10:33:00,49.1,30.7,30.06,WSW,248,0.8,0.0,49,0.00,CLR,,0.00,WeatherDisplay:10.37,2013-04-18 17:33:00,
2013-04-18 10:34:00,49.6,31.2,30.06,WSW,248,0.5,0.0,49,0.00,CLR,,0.00,WeatherDisplay:10.37,2013-04-18 17:34:00,
2013-04-18 10:35:00,49.6,31.2,30.06,WSW,248,0.5,0.0,49,0.00,CLR,,0.00,WeatherDisplay:10.37,2013-04-18 17:35:00,
2013-04-18 10:38:00,49.5,30.6,30.06,South,180,0.0,0.0,48,0.00,CLR,,0.00,WeatherDisplay:10.37,2013-04-18 17:38:00,
2013-04-18 10:39:00,49.5,30.6,30.06,South,180,0.0,0.0,48,0.00,CLR,,0.00,WeatherDisplay:10.37,2013-04-18 17:39:00,
2013-04-18 10:40:00,49.5,31.1,30.06,SE,135,0.3,4.8,49,0.00,CLR,,0.00,WeatherDisplay:10.37,2013-04-18 17:40:00,
2013-04-18 10:44:00,49.6,30.7,30.04,SSE,158,0.5,4.6,48,0.00,CLR,,0.00,WeatherDisplay:10.37,2013-04-18 17:44:00,
2013-04-18 10:45:00,49.8,30.9,30.04,NW,315,0.5,1.5,48,0.00,CLR,,0.00,WeatherDisplay:10.37,2013-04-18 17:45:00,
2013-04-18 10:46:00,49.8,30.9,30.04,NW,315,0.5,1.5,48,0.00,CLR,,0.00,WeatherDisplay:10.37,2013-04-18 17:46:00,
2013-04-18 10:49:00,51.1,32.6,30.04,NNE,22,0.6,2.3,49,0.00,CLR,,0.00,WeatherDisplay:10.37,2013-04-18 17:49:00,
2013-04-18 10:50:00,51.3,32.7,30.04,NE,45,0.7,2.3,49,0.00,CLR,,0.00,WeatherDisplay:10.37,2013-04-18 17:50:00,
2013-04-18 10:51:00,51.3,32.7,30.04,NE,45,0.7,2.3,49,0.00,CLR,,0.00,WeatherDisplay:10.37,2013-04-18 17:51:00,
2013-04-18 10:54:00,52.2,32.5,30.04,East,90,1.1,2.3,47,0.00,CLR,,0.00,WeatherDisplay:10.37,2013-04-18 17:54:00,
2013-04-18 10:55:00,52.2,32.5,30.04,East,90,1.1,2.3,47,0.00,CLR,,0.00,WeatherDisplay:10.37,2013-04-18 17:55:00,
2013-04-18 10:56:00,52.2,33.0,30.04,South,180,1.0,2.3,48,0.00,CLR,,0.00,WeatherDisplay:10.37,2013-04-18 17:56:00,
2013-04-18 10:59:00,51.8,32.7,30.04,WNW,292,1.1,1.1,48,0.00,CLR,,0.00,WeatherDisplay:10.37,2013-04-18 17:59:00,
2013-04-18 11:00:00,51.4,31.9,30.04,WSW,248,1.1,1.1,47,0.00,CLR,,0.00,WeatherDisplay:10.37,2013-04-18 18:00:00,
2013-04-18 11:02:00,51.4,31.9,30.04,WSW,248,1.1,1.1,47,0.00,CLR,,0.00,WeatherDisplay:10.37,2013-04-18 18:02:00,
2013-04-18 11:04:00,51.8,31.7,30.04,WSW,248,1.1,2.3,46,0.00,CLR,,0.00,WeatherDisplay:10.37,2013-04-18 18:04:00,
2013-04-18 11:05:00,51.8,31.7,30.04,WSW,248,1.1,2.3,46,0.00,CLR,,0.00,WeatherDisplay:10.37,2013-04-18 18:05:00,
2013-04-18 11:07:00,51.8,32.2,30.04,ESE,112,1.1,2.5,47,0.00,CLR,,0.00,WeatherDisplay:10.37,2013-04-18 18:07:00,
2013-04-18 11:09:00,51.8,32.2,30.04,SW,225,1.1,2.3,47,0.00,CLR,,0.00,WeatherDisplay:10.37,2013-04-18 18:09:00,
2013-04-18 11:10:00,51.8,32.2,30.04,SW,225,1.1,2.3,47,0.00,CLR,,0.00,WeatherDisplay:10.37,2013-04-18 18:10:00,
2013-04-18 11:11:00,51.6,32.0,30.04,WSW,248,0.9,0.0,47,0.00,CLR,,0.00,WeatherDisplay:10.37,2013-04-18 18:11:00,
2013-04-18 11:12:00,51.3,31.2,30.04,WSW,248,0.8,0.0,46,0.00,CLR,,0.00,WeatherDisplay:10.37,2013-04-18 18:12:00,
2013-04-18 11:15:00,51.3,31.7,30.04,West,270,0.5,0.0,47,0.00,CLR,,0.00,WeatherDisplay:10.37,2013-04-18 18:15:00,
2013-04-18 11:16:00,51.4,31.9,30.04,SSE,158,0.6,5.3,47,0.00,CLR,,0.00,WeatherDisplay:10.37,2013-04-18 18:16:00,
2013-04-18 11:18:00,51.4,31.9,30.04,SSE,158,0.6,5.8,47,0.00,CLR,,0.00,WeatherDisplay:10.37,2013-04-18 18:18:00,
2013-04-18 11:20:00,51.4,31.9,30.04,North,0,0.8,5.8,47,0.00,CLR,,0.00,WeatherDisplay:10.37,2013-04-18 18:20:00,
2013-04-18 11:21:00,51.8,32.2,30.04,SSE,158,1.1,2.3,47,0.00,CLR,,0.00,WeatherDisplay:10.37,2013-04-18 18:21:00,
2013-04-18 11:22:00,51.8,32.2,30.04,SSE,158,1.1,2.3,47,0.00,CLR,,0.00,WeatherDisplay:10.37,2013-04-18 18:22:00,
2013-04-18 11:23:00,51.8,31.7,30.04,SSE,158,1.3,4.6,46,0.00,CLR,,0.00,WeatherDisplay:10.37,2013-04-18 18:23:00,
2013-04-18 11:25:00,52.2,32.0,30.04,SSE,158,1.7,4.6,46,0.00,CLR,,0.00,WeatherDisplay:10.37,2013-04-18 18:25:00,
2013-04-18 11:26:00,52.0,31.8,30.04,SSE,158,1.7,2.3,46,0.00,CLR,,0.00,WeatherDisplay:10.37,2013-04-18 18:26:00,
2013-04-18 11:27:00,52.0,31.8,30.04,SSE,158,1.7,2.3,46,0.00,CLR,,0.00,WeatherDisplay:10.37,2013-04-18 18:27:00,
2013-04-18 11:28:00,52.0,31.8,30.04,SW,225,1.4,1.4,46,0.00,CLR,,0.00,WeatherDisplay:10.37,2013-04-18 18:28:00,
2013-04-18 11:30:00,52.2,32.0,30.04,ESE,112,1.1,0.0,46,0.00,CLR,,0.00,WeatherDisplay:10.37,2013-04-18 18:30:00,
2013-04-18 11:31:00,52.2,32.0,30.04,ESE,112,1.1,0.0,46,0.00,CLR,,0.00,WeatherDisplay:10.37,2013-04-18 18:31:00,
2013-04-18 11:32:00,52.2,31.4,30.04,SE,135,1.0,0.0,45,0.00,CLR,,0.00,WeatherDisplay:10.37,2013-04-18 18:32:00,
2013-04-18 11:33:00,52.2,31.4,30.04,SE,135,1.0,1.1,45,0.00,CLR,,0.00,WeatherDisplay:10.37,2013-04-18 18:33:00,
2013-04-18 11:35:00,52.2,31.4,30.04,ENE,68,0.7,1.1,45,0.00,CLR,,0.00,WeatherDisplay:10.37,2013-04-18 18:35:00,
2013-04-18 11:36:00,52.3,31.6,30.04,SSE,158,0.3,0.0,45,0.00,CLR,,0.00,WeatherDisplay:10.37,2013-04-18 18:36:00,
2013-04-18 11:37:00,52.3,31.6,30.04,SSE,158,0.3,0.0,45,0.00,CLR,,0.00,WeatherDisplay:10.37,2013-04-18 18:37:00,
2013-04-18 11:38:00,52.2,31.4,30.04,ESE,112,0.3,0.0,45,0.00,CLR,,0.00,WeatherDisplay:10.37,2013-04-18 18:38:00,
2013-04-18 11:40:00,52.2,32.0,30.04,SE,135,0.6,2.3,46,0.00,CLR,,0.00,WeatherDisplay:10.37,2013-04-18 18:40:00,
2013-04-18 11:41:00,52.2,32.0,30.04,SE,135,0.6,2.3,46,0.00,CLR,,0.00,WeatherDisplay:10.37,2013-04-18 18:41:00,
2013-04-18 11:43:00,52.7,32.5,30.04,SE,135,1.0,5.8,46,0.00,CLR,,0.00,WeatherDisplay:10.37,2013-04-18 18:43:00,
2013-04-18 11:45:00,53.1,32.3,30.04,SSE,158,1.3,5.8,45,0.00,CLR,,0.00,WeatherDisplay:10.37,2013-04-18 18:45:00,
2013-04-18 11:46:00,52.9,32.1,30.04,West,270,1.6,2.3,45,0.00,CLR,,0.00,WeatherDisplay:10.37,2013-04-18 18:46:00,
2013-04-18 11:47:00,52.9,32.1,30.04,West,270,1.6,2.3,45,0.00,CLR,,0.00,WeatherDisplay:10.37,2013-04-18 18:47:00,
2013-04-18 11:48:00,52.7,31.4,30.04,ENE,68,1.6,0.0,44,0.00,CLR,,0.00,WeatherDisplay:10.37,2013-04-18 18:48:00,
2013-04-18 11:50:00,52.7,31.4,30.04,WSW,248,1.4,0.0,44,0.00,CLR,,0.00,WeatherDisplay:10.37,2013-04-18 18:50:00,
2013-04-18 11:51:00,52.7,31.4,30.04,WSW,248,1.4,0.0,44,0.00,CLR,,0.00,WeatherDisplay:10.37,2013-04-18 18:51:00,
2013-04-18 11:52:00,52.5,31.2,30.04,SSW,202,1.1,0.0,44,0.00,CLR,,0.00,WeatherDisplay:10.37,2013-04-18 18:52:00,
2013-04-18 11:53:00,52.5,31.2,30.04,SSW,202,1.1,2.3,44,0.00,CLR,,0.00,WeatherDisplay:10.37,2013-04-18 18:53:00,
2013-04-18 11:54:00,52.5,31.2,30.04,SSW,202,1.1,2.3,44,0.00,CLR,,0.00,WeatherDisplay:10.37,2013-04-18 18:54:00,
2013-04-18 11:55:00,46.0,36.4,29.94,East,81,2.0,7.0,69,0.00,CLR,CLR,0.00,WeatherDisplay:10.37,2013-04-18 18:55:00,
2013-04-18 11:56:00,53.1,32.3,30.04,WSW,248,0.7,2.3,45,0.00,CLR,,0.00,WeatherDisplay:10.37,2013-04-18 18:56:00,
2013-04-18 11:58:00,53.1,32.3,30.04,ENE,68,0.5,0.0,45,0.00,CLR,,0.00,WeatherDisplay:10.37,2013-04-18 18:58:00,
2013-04-18 11:59:00,53.4,32.6,30.04,West,270,0.3,1.3,45,0.00,CLR,,0.00,WeatherDisplay:10.37,2013-04-18 18:59:00,
2013-04-18 12:00:00,46.2,36.6,29.94,SSW,192,3.0,6.0,69,0.00,CLR,CLR,0.00,WeatherDisplay:10.37,2013-04-18 19:00:00,
2013-04-18 12:02:00,54.1,33.8,30.03,NNE,22,0.6,2.3,46,0.00,CLR,,0.00,WeatherDisplay:10.37,2013-04-18 19:02:00,
2013-04-18 12:03:00,54.1,33.8,30.03,NNE,22,0.6,2.3,46,0.00,CLR,,0.00,WeatherDisplay:10.37,2013-04-18 19:03:00,
2013-04-18 12:04:00,54.1,33.8,30.03,NNE,22,0.6,2.3,46,0.00,CLR,,0.00,WeatherDisplay:10.37,2013-04-18 19:04:00,
2013-04-18 12:05:00,46.2,36.6,29.94,SSE,152,3.0,3.0,69,0.00,CLR,CLR,0.00,WeatherDisplay:10.37,2013-04-18 19:05:00,
2013-04-18 12:07:00,54.3,32.8,30.03,SSE,158,0.3,1.1,44,0.00,CLR,,0.00,WeatherDisplay:10.37,2013-04-18 19:07:00,
2013-04-18 12:08:00,54.3,32.8,30.03,SSE,158,0.3,1.4,44,0.00,CLR,,0.00,WeatherDisplay:10.37,2013-04-18 19:08:00,
2013-04-18 12:09:00,54.3,32.8,30.03,SSE,158,0.3,1.1,44,0.00,CLR,,0.00,WeatherDisplay:10.37,2013-04-18 19:09:00,
2013-04-18 12:10:00,46.2,36.6,29.94,ESE,113,3.0,7.0,69,0.00,CLR,CLR,0.00,WeatherDisplay:10.37,2013-04-18 19:10:00,
2013-04-18 12:13:00,54.3,32.8,30.03,SSE,158,0.3,1.1,44,0.00,CLR,,0.00,WeatherDisplay:10.37,2013-04-18 19:13:00,
2013-04-18 12:14:00,54.3,32.8,30.03,SSE,158,0.3,1.1,44,0.00,CLR,,0.00,WeatherDisplay:10.37,2013-04-18 19:14:00,
2013-04-18 12:15:00,46.2,36.6,29.94,East,101,3.0,6.0,69,0.00,CLR,CLR,0.00,WeatherDisplay:10.37,2013-04-18 19:15:00,
2013-04-18 12:18:00,55.8,34.2,30.03,East,90,1.7,4.6,44,0.00,CLR,,0.00,WeatherDisplay:10.37,2013-04-18 19:18:00,
2013-04-18 12:19:00,55.6,33.4,30.03,SE,135,1.4,4.6,43,0.00,CLR,,0.00,WeatherDisplay:10.37,2013-04-18 19:19:00,
2013-04-18 12:20:00,55.6,33.4,30.03,SE,135,1.4,4.6,43,0.00,CLR,,0.00,WeatherDisplay:10.37,2013-04-18 19:20:00,
2013-04-18 12:23:00,54.5,32.4,30.03,WSW,248,1.0,0.0,43,0.00,CLR,,0.00,WeatherDisplay:10.37,2013-04-18 19:23:00,
2013-04-18 12:24:00,54.5,32.4,30.03,WSW,248,1.0,0.0,43,0.00,CLR,,0.00,WeatherDisplay:10.37,2013-04-18 19:24:00,
2013-04-18 12:25:00,54.3,32.3,30.03,SE,135,1.1,0.0,43,0.00,CLR,,0.00,WeatherDisplay:10.37,2013-04-18 19:25:00,
2013-04-18 12:28:00,53.6,31.0,30.03,NW,315,0.7,0.0,42,0.00,CLR,,0.00,WeatherDisplay:10.37,2013-04-18 19:28:00,
2013-04-18 12:29:00,53.6,31.0,30.03,West,270,0.3,0.0,42,0.00,CLR,,0.00,WeatherDisplay:10.37,2013-04-18 19:29:00,
2013-04-18 12:30:00,54.1,32.7,30.03,West,270,0.3,2.3,44,0.00,CLR,,0.00,WeatherDisplay:10.37,2013-04-18 19:30:00,
2013-04-18 12:33:00,54.9,33.3,30.03,SSW,202,0.9,2.3,44,0.00,CLR,,0.00,WeatherDisplay:10.37,2013-04-18 19:33:00,
2013-04-18 12:34:00,54.7,32.6,30.03,SSE,158,0.8,2.3,43,0.00,CLR,,0.00,WeatherDisplay:10.37,2013-04-18 19:34:00,
2013-04-18 12:35:00,54.7,32.6,30.03,SSE,158,0.8,2.3,43,0.00,CLR,,0.00,WeatherDisplay:10.37,2013-04-18 19:35:00,
2013-04-18 12:38:00,55.8,33.6,30.03,NNW,338,1.4,2.3,43,0.00,CLR,,0.00,WeatherDisplay:10.37,2013-04-18 19:38:00,
2013-04-18 12:39:00,55.8,33.6,30.03,NNW,338,1.4,2.3,43,0.00,CLR,,0.00,WeatherDisplay:10.37,2013-04-18 19:39:00,
2013-04-18 12:40:00,55.9,33.7,30.03,NNW,338,1.4,2.3,43,0.00,CLR,,0.00,WeatherDisplay:10.37,2013-04-18 19:40:00,
2013-04-18 12:41:00,55.9,33.7,30.03,NNE,22,1.5,2.3,43,0.00,CLR,,0.00,WeatherDisplay:10.37,2013-04-18 19:41:00,
2013-04-18 12:44:00,56.1,34.5,30.03,SE,135,1.7,4.6,44,0.00,CLR,,0.00,WeatherDisplay:10.37,2013-04-18 19:44:00,
2013-04-18 12:45:00,55.6,33.4,30.03,NNE,22,1.5,4.6,43,0.00,CLR,,0.00,WeatherDisplay:10.37,2013-04-18 19:45:00,
2013-04-18 12:47:00,55.4,33.8,30.03,ESE,112,1.4,0.0,44,0.00,CLR,,0.00,WeatherDisplay:10.37,2013-04-18 19:47:00,
2013-04-18 12:49:00,55.9,33.7,30.03,SE,135,2.0,4.6,43,0.00,CLR,,0.00,WeatherDisplay:10.37,2013-04-18 19:49:00,
2013-04-18 12:50:00,55.9,33.2,30.03,South,180,2.0,2.3,42,0.00,CLR,,0.00,WeatherDisplay:10.37,2013-04-18 19:50:00,
2013-04-18 12:52:00,55.6,32.8,30.03,West,270,2.0,2.3,42,0.00,CLR,,0.00,WeatherDisplay:10.37,2013-04-18 19:52:00,
2013-04-18 12:54:00,55.6,32.8,30.03,ESE,112,1.6,1.6,42,0.00,CLR,,0.00,WeatherDisplay:10.37,2013-04-18 19:54:00,
2013-04-18 12:55:00,55.6,32.8,30.03,ESE,112,1.6,2.3,42,0.00,CLR,,0.00,WeatherDisplay:10.37,2013-04-18 19:55:00,
2013-04-18 12:57:00,55.9,33.2,30.03,South,180,2.1,5.8,42,0.00,CLR,,0.00,WeatherDisplay:10.37,2013-04-18 19:57:00,
2013-04-18 12:59:00,55.9,32.6,30.03,West,270,2.0,5.8,41,0.00,CLR,,0.00,WeatherDisplay:10.37,2013-04-18 19:59:00,
2013-04-18 13:00:00,55.8,33.0,30.03,NW,315,1.7,2.3,42,0.00,CLR,,0.00,WeatherDisplay:10.37,2013-04-18 20:00:00,
2013-04-18 13:02:00,55.8,33.0,30.03,NW,315,1.7,2.3,42,0.00,CLR,,0.00,WeatherDisplay:10.37,2013-04-18 20:02:00,
2013-04-18 13:04:00,55.8,31.8,30.04,ENE,68,1.3,0.0,40,0.00,CLR,,0.00,WeatherDisplay:10.37,2013-04-18 20:04:00,
2013-04-18 13:05:00,55.8,31.8,30.04,ENE,68,1.3,0.0,40,0.00,CLR,,0.00,WeatherDisplay:10.37,2013-04-18 20:05:00,
2013-04-18 13:07:00,55.6,31.6,30.04,ENE,68,1.1,1.1,40,0.00,CLR,,0.00,WeatherDisplay:10.37,2013-04-18 20:07:00,
2013-04-18 13:08:00,55.6,31.6,30.04,ENE,68,1.1,0.0,40,0.00,CLR,,0.00,WeatherDisplay:10.37,2013-04-18 20:08:00,
2013-04-18 13:09:00,55.4,32.1,30.04,ESE,112,0.5,2.3,41,0.00,CLR,,0.00,WeatherDisplay:10.37,2013-04-18 20:09:00,
2013-04-18 13:10:00,55.4,32.1,30.04,ESE,112,0.3,2.3,41,0.00,CLR,,0.00,WeatherDisplay:10.37,2013-04-18 20:10:00,
2013-04-18 13:12:00,55.4,32.1,30.04,ESE,112,0.3,0.0,41,0.00,CLR,,0.00,WeatherDisplay:10.37,2013-04-18 20:12:00,
2013-04-18 13:13:00,55.8,32.4,30.04,East,90,0.7,3.5,41,0.00,CLR,,0.00,WeatherDisplay:10.37,2013-04-18 20:13:00,
2013-04-18 13:14:00,56.3,33.5,30.04,SSE,158,1.0,4.3,42,0.00,CLR,,0.00,WeatherDisplay:10.37,2013-04-18 20:14:00,
2013-04-18 13:15:00,56.3,33.5,30.04,SSE,158,1.0,4.6,42,0.00,CLR,,0.00,WeatherDisplay:10.37,2013-04-18 20:15:00,
2013-04-18 13:16:00,56.3,33.5,30.04,SSE,158,1.0,4.6,42,0.00,CLR,,0.00,WeatherDisplay:10.37,2013-04-18 20:16:00,
2013-04-18 13:17:00,56.5,33.6,30.04,West,270,1.0,4.6,42,0.00,CLR,,0.00,WeatherDisplay:10.37,2013-04-18 20:17:00,
2013-04-18 13:18:00,56.5,33.0,30.04,NE,45,1.1,0.0,41,0.00,CLR,,0.00,WeatherDisplay:10.37,2013-04-18 20:18:00,
2013-04-18 13:19:00,56.5,33.0,30.04,NE,45,1.1,0.0,41,0.00,CLR,,0.00,WeatherDisplay:10.37,2013-04-18 20:19:00,
2013-04-18 13:20:00,56.5,33.0,30.04,WNW,292,1.1,0.0,41,0.00,CLR,,0.00,WeatherDisplay:10.37,2013-04-18 20:20:00,
2013-04-18 13:21:00,56.5,33.0,30.04,WNW,292,1.1,0.0,41,0.00,CLR,,0.00,WeatherDisplay:10.37,2013-04-18 20:21:00,
2013-04-18 13:22:00,56.8,33.4,30.03,SE,135,1.4,7.8,41,0.00,CLR,,0.00,WeatherDisplay:10.37,2013-04-18 20:22:00,
2013-04-18 13:23:00,56.8,33.4,30.03,SE,135,1.4,8.1,41,0.00,CLR,,0.00,WeatherDisplay:10.37,2013-04-18 20:23:00,
2013-04-18 13:25:00,56.7,32.6,30.03,SE,135,2.0,8.1,40,0.00,CLR,,0.00,WeatherDisplay:10.37,2013-04-18 20:25:00,
2013-04-18 13:27:00,56.7,33.2,30.03,SSE,158,2.2,8.1,41,0.00,CLR,,0.00,WeatherDisplay:10.37,2013-04-18 20:27:00,
2013-04-18 13:28:00,56.7,33.2,30.03,SSE,158,2.2,8.1,41,0.00,CLR,,0.00,WeatherDisplay:10.37,2013-04-18 20:28:00,
2013-04-18 13:30:00,56.8,34.0,30.03,South,180,2.6,8.1,42,0.00,CLR,,0.00,WeatherDisplay:10.37,2013-04-18 20:30:00,
2013-04-18 13:32:00,57.2,33.7,30.03,SE,135,2.8,2.9,41,0.00,CLR,,0.00,WeatherDisplay:10.37,2013-04-18 20:32:00,
2013-04-18 13:33:00,57.2,33.7,30.03,SE,135,2.8,2.9,41,0.00,CLR,,0.00,WeatherDisplay:10.37,2013-04-18 20:33:00,
2013-04-18 13:35:00,57.2,34.3,30.03,South,180,2.5,5.8,42,0.00,CLR,,0.00,WeatherDisplay:10.37,2013-04-18 20:35:00,
2013-04-18 13:38:00,57.2,33.7,30.03,South,180,2.6,6.9,41,0.00,CLR,,0.00,WeatherDisplay:10.37,2013-04-18 20:38:00,
2013-04-18 13:40:00,57.4,33.2,30.03,SSW,202,2.2,6.9,40,0.00,CLR,,0.00,WeatherDisplay:10.37,2013-04-18 20:40:00,
2013-04-18 13:43:00,57.4,33.2,30.03,ENE,68,2.1,0.0,40,0.00,CLR,,0.00,WeatherDisplay:10.37,2013-04-18 20:43:00,
2013-04-18 13:44:00,57.4,33.2,30.03,ENE,68,2.1,2.3,40,0.00,CLR,,0.00,WeatherDisplay:10.37,2013-04-18 20:44:00,
2013-04-18 13:45:00,57.0,32.9,30.03,SE,135,2.0,2.3,40,0.00,CLR,,0.00,WeatherDisplay:10.37,2013-04-18 20:45:00,
2013-04-18 13:46:00,57.0,32.9,30.03,SE,135,2.0,2.3,40,0.00,CLR,,0.00,WeatherDisplay:10.37,2013-04-18 20:46:00,
2013-04-18 13:48:00,57.6,33.4,30.03,SSE,158,1.8,3.5,40,0.00,CLR,,0.00,WeatherDisplay:10.37,2013-04-18 20:48:00,
2013-04-18 13:49:00,57.7,33.6,30.03,South,180,1.5,3.5,40,0.00,CLR,,0.00,WeatherDisplay:10.37,2013-04-18 20:49:00,
2013-04-18 13:50:00,45.9,36.3,29.91,SSW,199,2.0,2.0,69,0.00,CLR,CLR,0.00,WeatherDisplay:10.37,2013-04-18 20:50:00,
2013-04-18 13:51:00,57.6,32.8,30.03,SSE,158,1.4,4.6,39,0.00,CLR,,0.00,WeatherDisplay:10.37,2013-04-18 20:51:00,
2013-04-18 13:53:00,57.9,33.7,30.03,SE,135,2.1,5.8,40,0.00,CLR,,0.00,WeatherDisplay:10.37,2013-04-18 20:53:00,
2013-04-18 13:54:00,58.1,34.5,30.03,SSE,158,2.8,5.8,41,0.00,CLR,,0.00,WeatherDisplay:10.37,2013-04-18 20:54:00,
2013-04-18 13:55:00,45.9,36.3,29.91,SE,135,2.0,3.0,69,0.00,CLR,CLR,0.00,WeatherDisplay:10.37,2013-04-18 20:55:00,
2013-04-18 13:56:00,58.6,34.4,30.03,NNW,338,2.9,3.5,40,0.00,CLR,,0.00,WeatherDisplay:10.37,2013-04-18 20:56:00,
2013-04-18 13:58:00,58.3,34.0,30.03,South,180,2.6,2.6,40,0.00,CLR,,0.00,WeatherDisplay:10.37,2013-04-18 20:58:00,
2013-04-18 13:59:00,58.3,34.0,30.03,South,180,2.6,2.6,40,0.00,CLR,,0.00,WeatherDisplay:10.37,2013-04-18 20:59:00,
2013-04-18 14:00:00,58.3,34.0,30.03,South,180,2.6,2.6,40,0.00,CLR,,0.00,WeatherDisplay:10.37,2013-04-18 21:00:00,
2013-04-18 14:01:00,58.3,34.0,30.03,SSE,158,2.5,2.5,40,0.00,CLR,,0.00,WeatherDisplay:10.37,2013-04-18 21:01:00,
2013-04-18 14:02:00,58.3,34.0,30.03,SSE,158,2.5,2.5,40,0.00,CLR,,0.00,WeatherDisplay:10.37,2013-04-18 21:02:00,
2013-04-18 14:04:00,58.3,34.0,30.02,ESE,112,2.4,4.6,40,0.00,CLR,,0.00,WeatherDisplay:10.37,2013-04-18 21:04:00,
2013-04-18 14:05:00,58.5,34.2,30.02,South,180,1.8,4.6,40,0.00,CLR,,0.00,WeatherDisplay:10.37,2013-04-18 21:05:00,
2013-04-18 14:07:00,58.5,34.2,30.02,South,180,1.8,3.5,40,0.00,CLR,,0.00,WeatherDisplay:10.37,2013-04-18 21:07:00,
2013-04-18 14:09:00,59.2,35.5,30.02,SW,225,1.8,4.6,41,0.00,CLR,,0.00,WeatherDisplay:10.37,2013-04-18 21:09:00,
2013-04-18 14:10:00,59.2,35.5,30.02,SW,225,1.8,4.6,41,0.00,CLR,,0.00,WeatherDisplay:10.37,2013-04-18 21:10:00,
2013-04-18 14:12:00,59.4,35.6,30.02,SE,135,2.0,3.5,41,0.00,CLR,,0.00,WeatherDisplay:10.37,2013-04-18 21:12:00,
2013-04-18 14:14:00,59.0,34.1,30.02,SE,135,2.4,2.4,39,0.00,CLR,,0.00,WeatherDisplay:10.37,2013-04-18 21:14:00,
2013-04-18 14:15:00,58.8,33.9,30.02,SSE,158,2.6,6.9,39,0.00,CLR,,0.00,WeatherDisplay:10.37,2013-04-18 21:15:00,
2013-04-18 14:17:00,58.5,33.6,30.02,South,180,2.6,6.9,39,0.00,CLR,,0.00,WeatherDisplay:10.37,2013-04-18 21:17:00,
2013-04-18 14:18:00,58.5,33.6,30.02,South,180,2.6,2.6,39,0.00,CLR,,0.00,WeatherDisplay:10.37,2013-04-18 21:18:00,
2013-04-18 14:19:00,58.5,33.6,30.02,SE,135,2.6,4.6,39,0.00,CLR,,0.00,WeatherDisplay:10.37,2013-04-18 21:19:00,
2013-04-18 14:20:00,58.3,33.4,30.02,SE,135,2.6,4.6,39,0.00,CLR,,0.00,WeatherDisplay:10.37,2013-04-18 21:20:00,
2013-04-18 14:21:00,58.3,33.4,30.02,SE,135,2.6,4.6,39,0.00,CLR,,0.00,WeatherDisplay:10.37,2013-04-18 21:21:00,
2013-04-18 14:22:00,58.3,33.4,30.02,SE,135,2.6,2.6,39,0.00,CLR,,0.00,WeatherDisplay:10.37,2013-04-18 21:22:00,
2013-04-18 14:23:00,58.3,33.4,30.02,NE,45,2.4,2.4,39,0.00,CLR,,0.00,WeatherDisplay:10.37,2013-04-18 21:23:00,
2013-04-18 14:24:00,58.5,34.2,30.02,ESE,112,2.1,0.0,40,0.00,CLR,,0.00,WeatherDisplay:10.37,2013-04-18 21:24:00,
2013-04-18 14:25:00,45.5,36.3,29.89,SE,133,3.0,4.0,70,0.00,CLR,CLR,0.00,WeatherDisplay:10.37,2013-04-18 21:25:00,
2013-04-18 14:26:00,58.5,34.2,30.02,ESE,112,2.1,2.5,40,0.00,CLR,,0.00,WeatherDisplay:10.37,2013-04-18 21:26:00,
2013-04-18 14:27:00,59.0,34.1,30.02,East,90,1.4,2.9,39,0.00,CLR,,0.00,WeatherDisplay:10.37,2013-04-18 21:27:00,
2013-04-18 14:29:00,58.6,33.7,30.02,NNW,338,1.1,2.3,39,0.00,CLR,,0.00,WeatherDisplay:10.37,2013-04-18 21:29:00,
2013-04-18 14:30:00,45.5,36.3,29.89,SE,136,3.0,4.0,70,0.00,CLR,CLR,0.00,WeatherDisplay:10.37,2013-04-18 21:30:00,
2013-04-18 14:31:00,58.3,33.4,30.02,NE,45,0.6,0.0,39,0.00,CLR,,0.00,WeatherDisplay:10.37,2013-04-18 21:31:00,
2013-04-18 14:32:00,58.3,33.4,30.02,NE,45,0.6,0.0,39,0.00,CLR,,0.00,WeatherDisplay:10.37,2013-04-18 21:32:00,
2013-04-18 14:34:00,58.3,33.4,30.02,ESE,112,0.3,0.0,39,0.00,CLR,,0.00,WeatherDisplay:10.37,2013-04-18 21:34:00,
2013-04-18 14:35:00,45.5,36.3,29.89,SE,136,3.0,5.0,70,0.00,CLR,CLR,0.00,WeatherDisplay:10.37,2013-04-18 21:35:00,
2013-04-18 14:36:00,58.8,33.9,30.02,SSE,158,0.3,0.0,39,0.00,CLR,,0.00,WeatherDisplay:10.37,2013-04-18 21:36:00,
2013-04-18 14:37:00,58.8,33.9,30.02,SSE,158,0.3,2.3,39,0.00,CLR,,0.00,WeatherDisplay:10.37,2013-04-18 21:37:00,
2013-04-18 14:39:00,59.4,34.4,30.02,ESE,112,0.3,2.3,39,0.00,CLR,,0.00,WeatherDisplay:10.37,2013-04-18 21:39:00,
2013-04-18 14:40:00,45.5,36.3,29.89,South,173,3.0,3.0,70,0.00,CLR,CLR,0.00,WeatherDisplay:10.37,2013-04-18 21:40:00,
2013-04-18 14:42:00,59.9,34.9,30.02,SE,135,0.5,2.3,39,0.00,CLR,,0.00,WeatherDisplay:10.37,2013-04-18 21:42:00,
2013-04-18 14:43:00,60.1,35.0,30.01,ENE,68,0.9,2.3,39,0.00,CLR,,0.00,WeatherDisplay:10.37,2013-04-18 21:43:00,
2013-04-18 14:44:00,60.6,35.5,30.01,SE,135,1.7,3.8,39,0.00,CLR,,0.00,WeatherDisplay:10.37,2013-04-18 21:44:00,
2013-04-18 14:45:00,45.7,36.5,29.89,West,261,3.0,5.0,70,0.00,CLR,CLR,0.00,WeatherDisplay:10.37,2013-04-18 21:45:00,
2013-04-18 14:47:00,60.6,34.9,30.01,South,180,2.2,5.8,38,0.00,CLR,,0.00,WeatherDisplay:10.37,2013-04-18 21:47:00,
2013-04-18 14:48:00,60.6,34.9,30.01,South,180,2.2,6.1,38,0.00,CLR,,0.00,WeatherDisplay:10.37,2013-04-18 21:48:00,
2013-04-18 14:49:00,60.6,34.9,30.01,SSE,158,2.3,5.8,38,0.00,CLR,,0.00,WeatherDisplay:10.37,2013-04-18 21:49:00,
2013-04-18 14:50:00,60.6,34.9,30.01,SSE,158,2.3,5.8,38,0.00,CLR,,0.00,WeatherDisplay:10.37,2013-04-18 21:50:00,
2013-04-18 14:52:00,60.1,34.4,30.01,ESE,112,2.3,2.3,38,0.00,CLR,,0.00,WeatherDisplay:10.37,2013-04-18 21:52:00,
2013-04-18 14:53:00,60.1,34.4,30.01,ESE,112,2.3,2.3,38,0.00,CLR,,0.00,WeatherDisplay:10.37,2013-04-18 21:53:00,
2013-04-18 14:54:00,59.9,33.5,30.01,ESE,112,1.6,0.0,37,0.00,CLR,,0.00,WeatherDisplay:10.37,2013-04-18 21:54:00,
2013-04-18 14:55:00,59.9,33.5,30.01,ESE,112,1.6,0.0,37,0.00,CLR,,0.00,WeatherDisplay:10.37,2013-04-18 21:55:00,
2013-04-18 14:57:00,59.9,33.5,30.01,South,180,1.5,5.8,37,0.00,CLR,,0.00,WeatherDisplay:10.37,2013-04-18 21:57:00,
2013-04-18 14:58:00,59.4,33.1,30.01,South,180,1.4,5.8,37,0.00,CLR,,0.00,WeatherDisplay:10.37,2013-04-18 21:58:00,
2013-04-18 14:59:00,59.4,33.1,30.01,South,180,1.4,5.8,37,0.00,CLR,,0.00,WeatherDisplay:10.37,2013-04-18 21:59:00,
2013-04-18 15:00:00,59.4,33.1,30.01,South,180,1.4,3.5,37,0.00,CLR,,0.00,WeatherDisplay:10.37,2013-04-18 22:00:00,
2013-04-18 15:02:00,58.8,33.2,30.02,SSE,158,1.5,1.5,38,0.00,CLR,,0.00,WeatherDisplay:10.37,2013-04-18 22:02:00,
2013-04-18 15:03:00,58.8,33.2,30.02,SSE,158,1.5,3.5,38,0.00,CLR,,0.00,WeatherDisplay:10.37,2013-04-18 22:03:00,
2013-04-18 15:05:00,58.8,33.2,30.02,SSE,158,1.8,4.6,38,0.00,CLR,,0.00,WeatherDisplay:10.37,2013-04-18 22:05:00,
2013-04-18 15:08:00,59.0,34.1,30.02,ENE,68,2.8,9.2,39,0.00,CLR,,0.00,WeatherDisplay:10.37,2013-04-18 22:08:00,
2013-04-18 15:09:00,59.4,34.4,30.02,SE,135,3.2,10.4,39,0.00,CLR,,0.00,WeatherDisplay:10.37,2013-04-18 22:09:00,
2013-04-18 15:10:00,59.7,34.7,30.02,NE,45,3.9,10.4,39,0.00,CLR,,0.00,WeatherDisplay:10.37,2013-04-18 22:10:00,
2013-04-18 15:13:00,59.9,34.2,30.02,South,180,4.3,4.6,38,0.00,CLR,,0.00,WeatherDisplay:10.37,2013-04-18 22:13:00,
2013-04-18 15:14:00,60.1,34.4,30.02,SSE,158,4.5,4.6,38,0.00,CLR,,0.00,WeatherDisplay:10.37,2013-04-18 22:14:00,
2013-04-18 15:15:00,60.1,34.4,30.02,SSE,158,4.5,4.6,38,0.00,CLR,,0.00,WeatherDisplay:10.37,2013-04-18 22:15:00,
2013-04-18 15:16:00,60.1,34.4,30.02,SSE,158,4.5,4.6,38,0.00,CLR,,0.00,WeatherDisplay:10.37,2013-04-18 22:16:00,
2013-04-18 15:18:00,59.9,34.2,30.02,SSE,158,4.3,4.6,38,0.00,CLR,,0.00,WeatherDisplay:10.37,2013-04-18 22:18:00,
2013-04-18 15:19:00,59.9,34.2,30.02,North,0,3.5,4.6,38,0.00,CLR,,0.00,WeatherDisplay:10.37,2013-04-18 22:19:00,
2013-04-18 15:20:00,59.9,34.2,30.02,North,0,3.5,0.0,38,0.00,CLR,,0.00,WeatherDisplay:10.37,2013-04-18 22:20:00,
2013-04-18 15:21:00,60.1,34.4,30.02,SW,225,2.6,0.0,38,0.00,CLR,,0.00,WeatherDisplay:10.37,2013-04-18 22:21:00,
2013-04-18 15:23:00,60.3,34.5,30.01,South,180,2.6,6.9,38,0.00,CLR,,0.00,WeatherDisplay:10.37,2013-04-18 22:23:00,
2013-04-18 15:24:00,60.1,34.4,30.01,South,180,2.4,6.9,38,0.00,CLR,,0.00,WeatherDisplay:10.37,2013-04-18 22:24:00,
2013-04-18 15:25:00,60.1,34.4,30.01,South,180,2.4,6.9,38,0.00,CLR,,0.00,WeatherDisplay:10.37,2013-04-18 22:25:00,
2013-04-18 15:26:00,60.1,34.4,30.01,South,180,2.4,3.5,38,0.00,CLR,,0.00,WeatherDisplay:10.37,2013-04-18 22:26:00,
2013-04-18 15:28:00,59.9,34.2,30.01,WSW,248,2.9,6.9,38,0.00,CLR,,0.00,WeatherDisplay:10.37,2013-04-18 22:28:00,
2013-04-18 15:29:00,59.9,34.2,30.01,WSW,248,2.9,6.9,38,0.00,CLR,,0.00,WeatherDisplay:10.37,2013-04-18 22:29:00,
2013-04-18 15:30:00,59.9,34.2,30.01,WSW,248,2.9,6.9,38,0.00,CLR,,0.00,WeatherDisplay:10.37,2013-04-18 22:30:00,
2013-04-18 15:31:00,59.5,33.9,30.01,SE,135,3.0,6.9,38,0.00,CLR,,0.00,WeatherDisplay:10.37,2013-04-18 22:31:00,
2013-04-18 15:34:00,59.7,34.0,30.01,NE,45,3.0,6.9,38,0.00,CLR,,0.00,WeatherDisplay:10.37,2013-04-18 22:34:00,
2013-04-18 15:35:00,59.4,33.7,30.01,WNW,292,2.6,2.8,38,0.00,CLR,,0.00,WeatherDisplay:10.37,2013-04-18 22:35:00,
2013-04-18 15:36:00,59.2,33.6,30.01,SE,135,2.5,3.6,38,0.00,CLR,,0.00,WeatherDisplay:10.37,2013-04-18 22:36:00,
2013-04-18 15:39:00,59.0,33.4,30.01,South,180,2.4,6.9,38,0.00,CLR,,0.00,WeatherDisplay:10.37,2013-04-18 22:39:00,
2013-04-18 15:40:00,59.0,33.4,30.01,SSE,148,2.0,7.0,38,0.00,CLR,CLR,0.00,WeatherDisplay:10.37,2013-04-18 22:40:00,
2013-04-18 15:41:00,59.0,34.1,30.01,South,180,2.6,6.9,39,0.00,CLR,,0.00,WeatherDisplay:10.37,2013-04-18 22:41:00,
2013-04-18 15:42:00,59.0,34.1,30.01,South,180,2.6,6.9,39,0.00,CLR,,0.00,WeatherDisplay:10.37,2013-04-18 22:42:00,
2013-04-18 15:44:00,59.0,34.1,30.03,ENE,68,2.4,2.4,39,0.00,CLR,,0.00,WeatherDisplay:10.37,2013-04-18 22:44:00,
2013-04-18 15:45:00,59.0,34.1,30.03,ENE,68,2.4,2.4,39,0.00,CLR,,0.00,WeatherDisplay:10.37,2013-04-18 22:45:00,
2013-04-18 15:47:00,59.4,35.0,30.03,ESE,112,2.8,6.1,40,0.00,CLR,,0.00,WeatherDisplay:10.37,2013-04-18 22:47:00,
2013-04-18 15:49:00,59.7,34.7,30.03,East,90,3.0,6.1,39,0.00,CLR,,0.00,WeatherDisplay:10.37,2013-04-18 22:49:00,
2013-04-18 15:50:00,59.7,34.7,30.03,East,90,3.0,6.1,39,0.00,CLR,,0.00,WeatherDisplay:10.37,2013-04-18 22:50:00,
2013-04-18 15:52:00,59.7,34.7,30.03,West,270,3.0,5.2,39,0.00,CLR,,0.00,WeatherDisplay:10.37,2013-04-18 22:52:00,
2013-04-18 15:54:00,59.5,34.5,30.03,SE,135,3.3,3.3,39,0.00,CLR,,0.00,WeatherDisplay:10.37,2013-04-18 22:54:00,
2013-04-18 15:55:00,59.5,34.5,30.03,SE,124,3.0,6.0,39,0.00,CLR,CLR,0.00,WeatherDisplay:10.37,2013-04-18 22:55:00,
2013-04-18 15:57:00,59.4,34.4,30.03,South,180,3.2,4.6,39,0.00,CLR,,0.00,WeatherDisplay:10.37,2013-04-18 22:57:00,
2013-04-18 15:59:00,59.4,34.4,30.03,SE,135,3.1,3.5,39,0.00,CLR,,0.00,WeatherDisplay:10.37,2013-04-18 22:59:00,
2013-04-18 16:00:00,59.4,34.4,30.03,SE,135,3.1,3.1,39,0.00,CLR,,0.00,WeatherDisplay:10.37,2013-04-18 23:00:00,
2013-04-18 16:02:00,59.7,34.7,30.01,East,90,2.6,2.6,39,0.00,CLR,,0.00,WeatherDisplay:10.37,2013-04-18 23:02:00,
2013-04-18 16:05:00,59.7,34.7,30.01,SSE,158,2.5,4.6,39,0.00,CLR,,0.00,WeatherDisplay:10.37,2013-04-18 23:05:00,
2013-04-18 16:07:00,59.9,35.5,30.01,SSE,158,2.3,5.8,40,0.00,CLR,,0.00,WeatherDisplay:10.37,2013-04-18 23:07:00,
2013-04-18 16:10:00,59.4,34.4,30.01,South,180,2.2,5.8,39,0.00,CLR,,0.00,WeatherDisplay:10.37,2013-04-18 23:10:00,
2013-04-18 16:11:00,59.4,34.4,30.01,South,180,2.2,5.8,39,0.00,CLR,,0.00,WeatherDisplay:10.37,2013-04-18 23:11:00,
2013-04-18 16:12:00,59.2,34.2,30.01,ESE,112,2.0,2.0,39,0.00,CLR,,0.00,WeatherDisplay:10.37,2013-04-18 23:12:00,
2013-04-18 16:13:00,59.2,34.2,30.01,ESE,112,2.0,2.3,39,0.00,CLR,,0.00,WeatherDisplay:10.37,2013-04-18 23:13:00,
2013-04-18 16:15:00,59.7,35.3,30.01,ENE,68,2.1,6.9,40,0.00,CLR,,0.00,WeatherDisplay:10.37,2013-04-18 23:15:00,
2013-04-18 16:16:00,59.7,35.3,30.01,ENE,68,2.1,6.9,40,0.00,CLR,,0.00,WeatherDisplay:10.37,2013-04-18 23:16:00,
2013-04-18 16:17:00,59.7,34.7,30.01,NE,45,1.8,6.9,39,0.00,CLR,,0.00,WeatherDisplay:10.37,2013-04-18 23:17:00,
2013-04-18 16:18:00,59.7,34.7,30.01,NE,45,1.8,1.8,39,0.00,CLR,,0.00,WeatherDisplay:10.37,2013-04-18 23:18:00,
2013-04-18 16:20:00,44.6,36.8,29.86,ESE,116,3.0,8.0,74,0.00,CLR,CLR,0.00,WeatherDisplay:10.37,2013-04-18 23:20:00,
2013-04-18 16:21:00,60.3,35.8,30.01,NNW,338,1.8,2.3,40,0.00,CLR,,0.00,WeatherDisplay:10.37,2013-04-18 23:21:00,
2013-04-18 16:23:00,60.6,35.5,30.00,SSE,158,2.1,4.9,39,0.00,CLR,,0.00,WeatherDisplay:10.37,2013-04-18 23:23:00,
2013-04-18 16:25:00,44.6,36.8,29.86,SE,135,3.0,7.0,74,0.00,CLR,CLR,0.00,WeatherDisplay:10.37,2013-04-18 23:25:00,
2013-04-18 16:26:00,60.6,35.5,30.00,South,180,2.4,6.9,39,0.00,CLR,,0.00,WeatherDisplay:10.37,2013-04-18 23:26:00,
2013-04-18 16:28:00,60.8,35.7,30.00,ESE,112,2.5,2.5,39,0.00,CLR,,0.00,WeatherDisplay:10.37,2013-04-18 23:28:00,
2013-04-18 16:29:00,60.6,34.9,30.00,ESE,112,2.0,2.3,38,0.00,CLR,,0.00,WeatherDisplay:10.37,2013-04-18 23:29:00,
2013-04-18 16:31:00,60.3,34.5,30.00,ENE,68,2.0,0.0,38,0.00,CLR,,0.00,WeatherDisplay:10.37,2013-04-18 23:31:00,
2013-04-18 16:33:00,59.9,33.5,30.00,SSE,158,2.4,5.8,37,0.00,CLR,,0.00,WeatherDisplay:10.37,2013-04-18 23:33:00,
2013-04-18 16:34:00,59.9,33.5,30.00,SSE,158,2.4,5.9,37,0.00,CLR,,0.00,WeatherDisplay:10.37,2013-04-18 23:34:00,
2013-04-18 16:36:00,59.7,33.4,30.00,SE,135,2.3,0.0,37,0.00,CLR,,0.00,WeatherDisplay:10.37,2013-04-18 23:36:00,
2013-04-18 16:38:00,59.9,34.9,30.00,SSE,158,2.0,4.1,39,0.00,CLR,,0.00,WeatherDisplay:10.37,2013-04-18 23:38:00,
2013-04-18 16:39:00,59.9,34.9,30.00,SSE,158,2.0,4.6,39,0.00,CLR,,0.00,WeatherDisplay:10.37,2013-04-18 23:39:00,
2013-04-18 16:41:00,59.7,34.0,30.00,ENE,68,2.2,4.6,38,0.00,CLR,,0.00,WeatherDisplay:10.37,2013-04-18 23:41:00,
2013-04-18 16:42:00,59.7,34.0,30.00,ENE,68,2.2,4.6,38,0.00,CLR,,0.00,WeatherDisplay:10.37,2013-04-18 23:42:00,
2013-04-18 16:44:00,59.7,34.7,30.00,WSW,248,2.0,3.5,39,0.00,CLR,,0.00,WeatherDisplay:10.37,2013-04-18 23:44:00,
2013-04-18 16:46:00,60.1,35.0,30.00,SE,135,2.0,3.5,39,0.00,CLR,,0.00,WeatherDisplay:10.37,2013-04-18 23:46:00,
2013-04-18 16:47:00,60.1,35.0,30.00,SE,135,2.0,3.5,39,0.00,CLR,,0.00,WeatherDisplay:10.37,2013-04-18 23:47:00,
2013-04-18 16:49:00,59.9,34.9,30.00,SE,135,2.1,3.5,39,0.00,CLR,,0.00,WeatherDisplay:10.37,2013-04-18 23:49:00,
2013-04-18 16:52:00,59.5,33.9,30.00,South,180,1.8,3.5,38,0.00,CLR,,0.00,WeatherDisplay:10.37,2013-04-18 23:52:00,
2013-04-18 16:54:00,59.2,34.2,30.00,ESE,112,1.6,1.6,39,0.00,CLR,,0.00,WeatherDisplay:10.37,2013-04-18 23:54:00,
2013-04-18 16:55:00,59.2,34.2,30.00,ESE,112,1.6,1.6,39,0.00,CLR,,0.00,WeatherDisplay:10.37,2013-04-18 23:55:00,
2013-04-18 17:57:00,58.8,34.5,30.00,East,90,1.1,0.0,40,0.00,CLR,,0.00,WeatherDisplay:10.37,2013-04-19 00:57:00,
2013-04-18 17:58:00,58.8,34.5,30.00,East,90,1.1,0.0,40,0.00,CLR,,0.00,WeatherDisplay:10.37,2013-04-19 00:58:00,
2013-04-18 18:02:00,58.8,34.5,30.00,East,90,1.1,0.0,40,0.00,CLR,,0.00,WeatherDisplay:10.37,2013-04-19 01:02:00,
2013-04-18 18:03:00,58.8,34.5,30.00,East,90,1.1,0.0,40,0.00,CLR,,0.00,WeatherDisplay:10.37,2013-04-19 01:03:00,
2013-04-18 18:07:00,58.8,34.5,30.00,East,90,1.1,0.0,40,0.00,CLR,,0.00,WeatherDisplay:10.37,2013-04-19 01:07:00,
2013-04-18 18:08:00,58.8,34.5,30.00,East,90,1.1,0.0,40,0.00,CLR,,0.00,WeatherDisplay:10.37,2013-04-19 01:08:00,
2013-04-18 18:09:00,58.8,34.5,30.00,East,90,1.1,0.0,40,0.00,CLR,,0.00,WeatherDisplay:10.37,2013-04-19 01:09:00,
2013-04-18 18:13:00,58.8,34.5,30.00,East,90,1.1,0.0,40,0.00,CLR,,0.00,WeatherDisplay:10.37,2013-04-19 01:13:00,
2013-04-18 18:14:00,58.8,34.5,30.00,East,90,1.1,0.0,40,0.00,CLR,,0.00,WeatherDisplay:10.37,2013-04-19 01:14:00,
2013-04-18 18:18:00,58.8,34.5,30.00,East,90,1.1,0.0,40,0.00,CLR,,0.00,WeatherDisplay:10.37,2013-04-19 01:18:00,
2013-04-18 18:19:00,58.8,34.5,30.00,East,90,1.1,0.0,40,0.00,CLR,,0.00,WeatherDisplay:10.37,2013-04-19 01:19:00,
2013-04-18 18:23:00,58.8,34.5,30.00,East,90,1.1,0.0,40,0.00,CLR,,0.00,WeatherDisplay:10.37,2013-04-19 01:23:00,
2013-04-18 18:24:00,58.8,34.5,30.00,East,90,1.1,0.0,40,0.00,CLR,,0.00,WeatherDisplay:10.37,2013-04-19 01:24:00,
2013-04-18 18:28:00,58.8,34.5,30.00,East,90,1.1,0.0,40,0.00,CLR,,0.00,WeatherDisplay:10.37,2013-04-19 01:28:00,
2013-04-18 18:29:00,58.8,34.5,30.00,East,90,1.1,0.0,40,0.00,CLR,,0.00,WeatherDisplay:10.37,2013-04-19 01:29:00,
2013-04-18 18:34:00,58.8,34.5,30.00,East,90,1.1,0.0,40,0.00,CLR,,0.00,WeatherDisplay:10.37,2013-04-19 01:34:00,
2013-04-18 18:35:00,58.8,34.5,30.00,East,90,1.1,0.0,40,0.00,CLR,,0.00,WeatherDisplay:10.37,2013-04-19 01:35:00,
2013-04-18 18:39:00,58.8,34.5,30.00,East,90,1.1,0.0,40,0.00,CLR,,0.00,WeatherDisplay:10.37,2013-04-19 01:39:00,
2013-04-18 18:40:00,58.8,34.5,30.00,East,90,1.1,0.0,40,0.00,CLR,,0.00,WeatherDisplay:10.37,2013-04-19 01:40:00,
2013-04-18 18:44:00,58.8,34.5,30.00,East,90,1.1,0.0,40,0.00,CLR,,0.00,WeatherDisplay:10.37,2013-04-19 01:44:00,
2013-04-18 18:45:00,58.8,34.5,30.00,East,90,1.1,0.0,40,0.00,CLR,,0.00,WeatherDisplay:10.37,2013-04-19 01:45:00,
2013-04-18 18:49:00,58.8,34.5,30.00,East,90,1.1,0.0,40,0.00,CLR,,0.00,WeatherDisplay:10.37,2013-04-19 01:49:00,
2013-04-18 18:50:00,58.8,34.5,30.00,East,90,1.1,0.0,40,0.00,CLR,,0.00,WeatherDisplay:10.37,2013-04-19 01:50:00,
2013-04-18 18:54:00,58.8,34.5,30.00,East,90,1.1,0.0,40,0.00,CLR,,0.00,WeatherDisplay:10.37,2013-04-19 01:54:00,
2013-04-18 18:55:00,58.8,34.5,30.00,East,90,1.1,0.0,40,0.00,CLR,,0.00,WeatherDisplay:10.37,2013-04-19 01:55:00,
2013-04-18 18:56:00,58.8,34.5,30.00,East,90,1.1,0.0,40,0.00,CLR,,0.00,WeatherDisplay:10.37,2013-04-19 01:56:00,
2013-04-18 18:59:00,58.8,34.5,30.00,East,90,1.1,0.0,40,0.00,CLR,,0.00,WeatherDisplay:10.37,2013-04-19 01:59:00,
2013-04-18 19:00:00,58.8,34.5,30.00,East,90,1.1,0.0,40,0.00,CLR,,0.00,WeatherDisplay:10.37,2013-04-19 02:00:00,
2013-04-18 19:01:00,58.8,34.5,30.00,East,90,1.1,0.0,40,0.00,CLR,,0.00,WeatherDisplay:10.37,2013-04-19 02:01:00,
2013-04-18 19:05:00,58.8,34.5,30.00,East,90,1.1,0.0,40,0.00,CLR,,0.00,WeatherDisplay:10.37,2013-04-19 02:05:00,
2013-04-18 19:06:00,58.8,34.5,30.00,East,90,1.1,0.0,40,0.00,CLR,,0.00,WeatherDisplay:10.37,2013-04-19 02:06:00,
2013-04-18 19:10:00,58.8,34.5,30.00,East,90,1.1,0.0,40,0.00,CLR,,0.00,WeatherDisplay:10.37,2013-04-19 02:10:00,
2013-04-18 19:11:00,58.8,34.5,30.00,East,90,1.1,0.0,40,0.00,CLR,,0.00,WeatherDisplay:10.37,2013-04-19 02:11:00,
2013-04-18 19:15:00,58.8,34.5,30.00,East,90,1.1,0.0,40,0.00,CLR,,0.00,WeatherDisplay:10.37,2013-04-19 02:15:00,
2013-04-18 19:16:00,58.8,34.5,30.00,East,90,1.1,0.0,40,0.00,CLR,,0.00,WeatherDisplay:10.37,2013-04-19 02:16:00,
2013-04-18 19:17:00,58.8,34.5,30.00,East,90,1.1,0.0,40,0.00,CLR,,0.00,WeatherDisplay:10.37,2013-04-19 02:17:00,
2013-04-18 19:21:00,58.8,34.5,30.00,East,90,1.1,0.0,40,0.00,CLR,,0.00,WeatherDisplay:10.37,2013-04-19 02:21:00,
2013-04-18 19:22:00,58.8,34.5,30.00,East,90,1.1,0.0,40,0.00,CLR,,0.00,WeatherDisplay:10.37,2013-04-19 02:22:00,
2013-04-18 19:26:00,58.8,34.5,30.00,East,90,1.1,0.0,40,0.00,CLR,,0.00,WeatherDisplay:10.37,2013-04-19 02:26:00,
2013-04-18 19:27:00,58.8,34.5,30.00,East,90,1.1,0.0,40,0.00,CLR,,0.00,WeatherDisplay:10.37,2013-04-19 02:27:00,
2013-04-18 19:31:00,58.8,34.5,30.00,East,90,1.1,0.0,40,0.00,CLR,,0.00,WeatherDisplay:10.37,2013-04-19 02:31:00,
2013-04-18 19:32:00,58.8,34.5,30.00,East,90,1.1,0.0,40,0.00,CLR,,0.00,WeatherDisplay:10.37,2013-04-19 02:32:00,
2013-04-18 19:33:00,58.8,34.5,30.00,East,90,1.1,0.0,40,0.00,CLR,,0.00,WeatherDisplay:10.37,2013-04-19 02:33:00,
2013-04-18 19:37:00,58.8,34.5,30.00,East,90,1.1,0.0,40,0.00,CLR,,0.00,WeatherDisplay:10.37,2013-04-19 02:37:00,
2013-04-18 19:38:00,58.8,34.5,30.00,East,90,1.1,0.0,40,0.00,CLR,,0.00,WeatherDisplay:10.37,2013-04-19 02:38:00,
2013-04-18 19:42:00,58.8,34.5,30.00,East,90,1.1,0.0,40,0.00,CLR,,0.00,WeatherDisplay:10.37,2013-04-19 02:42:00,
2013-04-18 19:43:00,58.8,34.5,30.00,East,90,1.1,0.0,40,0.00,CLR,,0.00,WeatherDisplay:10.37,2013-04-19 02:43:00,
2013-04-18 19:47:00,58.8,34.5,30.00,East,90,1.1,0.0,40,0.00,CLR,,0.00,WeatherDisplay:10.37,2013-04-19 02:47:00,
2013-04-18 19:48:00,58.8,34.5,30.00,East,90,1.1,0.0,40,0.00,CLR,,0.00,WeatherDisplay:10.37,2013-04-19 02:48:00,
2013-04-18 19:49:00,58.8,34.5,30.00,East,90,1.1,0.0,40,0.00,CLR,,0.00,WeatherDisplay:10.37,2013-04-19 02:49:00,
2013-04-18 19:52:00,58.8,34.5,30.00,East,90,1.1,0.0,40,0.00,CLR,,0.00,WeatherDisplay:10.37,2013-04-19 02:52:00,
2013-04-18 19:53:00,58.8,34.5,30.00,East,90,1.1,0.0,40,0.00,CLR,,0.00,WeatherDisplay:10.37,2013-04-19 02:53:00,
2013-04-18 19:54:00,58.8,34.5,30.00,East,90,1.1,0.0,40,0.00,CLR,,0.00,WeatherDisplay:10.37,2013-04-19 02:54:00,
2013-04-18 19:57:00,58.8,34.5,30.00,East,90,1.1,0.0,40,0.00,CLR,,0.00,WeatherDisplay:10.37,2013-04-19 02:57:00,
2013-04-18 19:58:00,58.8,34.5,30.00,East,90,1.1,0.0,40,0.00,CLR,,0.00,WeatherDisplay:10.37,2013-04-19 02:58:00,
2013-04-18 19:59:00,58.8,34.5,30.00,East,90,1.1,0.0,40,0.00,CLR,,0.00,WeatherDisplay:10.37,2013-04-19 02:59:00,
2013-04-18 20:02:00,58.8,34.5,30.00,East,90,1.1,0.0,40,0.00,CLR,,0.00,WeatherDisplay:10.37,2013-04-19 03:02:00,
2013-04-18 20:03:00,58.8,34.5,30.00,East,90,1.1,0.0,40,0.00,CLR,,0.00,WeatherDisplay:10.37,2013-04-19 03:03:00,
2013-04-18 20:04:00,58.8,34.5,30.00,East,90,1.1,0.0,40,0.00,CLR,,0.00,WeatherDisplay:10.37,2013-04-19 03:04:00,
2013-04-18 20:08:00,58.8,34.5,30.00,East,90,1.1,0.0,40,0.00,CLR,,0.00,WeatherDisplay:10.37,2013-04-19 03:08:00,
2013-04-18 20:09:00,58.8,34.5,30.00,East,90,1.1,0.0,40,0.00,CLR,,0.00,WeatherDisplay:10.37,2013-04-19 03:09:00,
2013-04-18 20:13:00,58.8,34.5,30.00,East,90,1.1,0.0,40,0.00,CLR,,0.00,WeatherDisplay:10.37,2013-04-19 03:13:00,
2013-04-18 20:14:00,58.8,34.5,30.00,East,90,1.1,0.0,40,0.00,CLR,,0.00,WeatherDisplay:10.37,2013-04-19 03:14:00,
2013-04-18 20:18:00,58.8,34.5,30.00,East,90,1.1,0.0,40,0.00,CLR,,0.00,WeatherDisplay:10.37,2013-04-19 03:18:00,
2013-04-18 20:19:00,58.8,34.5,30.00,East,90,1.1,0.0,40,0.00,CLR,,0.00,WeatherDisplay:10.37,2013-04-19 03:19:00,
2013-04-18 20:20:00,58.8,34.5,30.00,East,90,1.1,0.0,40,0.00,CLR,,0.00,WeatherDisplay:10.37,2013-04-19 03:20:00,
2013-04-18 20:23:00,58.8,34.5,30.00,East,90,1.1,0.0,40,0.00,CLR,,0.00,WeatherDisplay:10.37,2013-04-19 03:23:00,
2013-04-18 20:24:00,58.8,34.5,30.00,East,90,1.1,0.0,40,0.00,CLR,,0.00,WeatherDisplay:10.37,2013-04-19 03:24:00,
2013-04-18 20:25:00,58.8,34.5,30.00,East,90,1.0,0.0,40,0.00,CLR,CLR,0.00,WeatherDisplay:10.37,2013-04-19 03:25:00,
2013-04-18 20:28:00,58.8,34.5,30.00,East,90,1.1,0.0,40,0.00,CLR,,0.00,WeatherDisplay:10.37,2013-04-19 03:28:00,
2013-04-18 20:29:00,58.8,34.5,30.00,East,90,1.1,0.0,40,0.00,CLR,,0.00,WeatherDisplay:10.37,2013-04-19 03:29:00,
2013-04-18 20:30:00,58.8,34.5,30.00,East,90,1.1,0.0,40,0.00,CLR,,0.00,WeatherDisplay:10.37,2013-04-19 03:30:00,
2013-04-18 20:33:00,58.8,34.5,30.00,East,90,1.1,0.0,40,0.00,CLR,,0.00,WeatherDisplay:10.37,2013-04-19 03:33:00,
2013-04-18 20:34:00,58.8,34.5,30.00,East,90,1.1,0.0,40,0.00,CLR,,0.00,WeatherDisplay:10.37,2013-04-19 03:34:00,
2013-04-18 20:35:00,58.8,34.5,30.00,East,90,1.1,0.0,40,0.00,CLR,,0.00,WeatherDisplay:10.37,2013-04-19 03:35:00,
2013-04-18 20:38:00,58.8,34.5,30.00,East,90,1.1,0.0,40,0.00,CLR,,0.00,WeatherDisplay:10.37,2013-04-19 03:38:00,
2013-04-18 20:39:00,58.8,34.5,30.00,East,90,1.1,0.0,40,0.00,CLR,,0.00,WeatherDisplay:10.37,2013-04-19 03:39:00,
2013-04-18 20:40:00,58.8,34.5,30.00,East,90,1.1,0.0,40,0.00,CLR,,0.00,WeatherDisplay:10.37,2013-04-19 03:40:00,
2013-04-18 20:44:00,58.8,34.5,30.00,East,90,1.1,0.0,40,0.00,CLR,,0.00,WeatherDisplay:10.37,2013-04-19 03:44:00,
2013-04-18 20:45:00,58.8,34.5,30.00,East,90,1.1,0.0,40,0.00,CLR,,0.00,WeatherDisplay:10.37,2013-04-19 03:45:00,
2013-04-18 20:49:00,58.8,34.5,30.00,East,90,1.1,0.0,40,0.00,CLR,,0.00,WeatherDisplay:10.37,2013-04-19 03:49:00,
2013-04-18 20:50:00,58.8,34.5,30.00,East,90,1.1,0.0,40,0.00,CLR,,0.00,WeatherDisplay:10.37,2013-04-19 03:50:00,
2013-04-18 20:51:00,58.8,34.5,30.00,East,90,1.1,0.0,40,0.00,CLR,,0.00,WeatherDisplay:10.37,2013-04-19 03:51:00,
2013-04-18 20:54:00,58.8,34.5,30.00,East,90,1.1,0.0,40,0.00,CLR,,0.00,WeatherDisplay:10.37,2013-04-19 03:54:00,
2013-04-18 20:55:00,58.8,34.5,30.00,East,90,1.1,0.0,40,0.00,CLR,,0.00,WeatherDisplay:10.37,2013-04-19 03:55:00,
2013-04-18 20:56:00,58.8,34.5,30.00,East,90,1.1,0.0,40,0.00,CLR,,0.00,WeatherDisplay:10.37,2013-04-19 03:56:00,
2013-04-18 20:59:00,58.8,34.5,30.00,East,90,1.1,0.0,40,0.00,CLR,,0.00,WeatherDisplay:10.37,2013-04-19 03:59:00,
2013-04-18 21:00:00,58.8,34.5,30.00,East,90,1.1,0.0,40,0.00,CLR,,0.00,WeatherDisplay:10.37,2013-04-19 04:00:00,
2013-04-18 21:01:00,58.8,34.5,30.00,East,90,1.1,0.0,40,0.00,CLR,,0.00,WeatherDisplay:10.37,2013-04-19 04:01:00,
2013-04-18 21:06:00,58.8,34.5,30.00,East,90,1.1,0.0,40,0.00,CLR,,0.00,WeatherDisplay:10.37,2013-04-19 04:06:00,
2013-04-18 21:11:00,58.8,34.5,30.00,East,90,1.1,0.0,40,0.00,CLR,,0.00,WeatherDisplay:10.37,2013-04-19 04:11:00,
2013-04-18 21:12:00,58.8,34.5,30.00,East,90,1.1,0.0,40,0.00,CLR,,0.00,WeatherDisplay:10.37,2013-04-19 04:12:00,
2013-04-18 21:16:00,58.8,34.5,30.00,East,90,1.1,0.0,40,0.00,CLR,,0.00,WeatherDisplay:10.37,2013-04-19 04:16:00,
2013-04-18 21:17:00,58.8,34.5,30.00,East,90,1.1,0.0,40,0.00,CLR,,0.00,WeatherDisplay:10.37,2013-04-19 04:17:00,
2013-04-18 21:21:00,58.8,34.5,30.00,East,90,1.1,0.0,40,0.00,CLR,,0.00,WeatherDisplay:10.37,2013-04-19 04:21:00,
2013-04-18 21:22:00,58.8,34.5,30.00,East,90,1.1,0.0,40,0.00,CLR,,0.00,WeatherDisplay:10.37,2013-04-19 04:22:00,
2013-04-18 21:26:00,58.8,34.5,30.00,East,90,1.1,0.0,40,0.00,CLR,,0.00,WeatherDisplay:10.37,2013-04-19 04:26:00,
2013-04-18 21:27:00,58.8,34.5,30.00,East,90,1.1,0.0,40,0.00,CLR,,0.00,WeatherDisplay:10.37,2013-04-19 04:27:00,
2013-04-18 21:28:00,58.8,34.5,30.00,East,90,1.1,0.0,40,0.00,CLR,,0.00,WeatherDisplay:10.37,2013-04-19 04:28:00,
2013-04-18 21:31:00,58.8,34.5,30.00,East,90,1.1,0.0,40,0.00,CLR,,0.00,WeatherDisplay:10.37,2013-04-19 04:31:00,
2013-04-18 21:32:00,58.8,34.5,30.00,East,90,1.1,0.0,40,0.00,CLR,,0.00,WeatherDisplay:10.37,2013-04-19 04:32:00,
2013-04-18 21:33:00,58.8,34.5,30.00,East,90,1.1,0.0,40,0.00,CLR,,0.00,WeatherDisplay:10.37,2013-04-19 04:33:00,
2013-04-18 21:37:00,58.8,34.5,30.00,East,90,1.1,0.0,40,0.00,CLR,,0.00,WeatherDisplay:10.37,2013-04-19 04:37:00,
2013-04-18 21:38:00,58.8,34.5,30.00,East,90,1.1,0.0,40,0.00,CLR,,0.00,WeatherDisplay:10.37,2013-04-19 04:38:00,
2013-04-18 21:42:00,58.8,34.5,30.00,East,90,1.1,0.0,40,0.00,CLR,,0.00,WeatherDisplay:10.37,2013-04-19 04:42:00,
2013-04-18 21:43:00,58.8,34.5,30.00,East,90,1.1,0.0,40,0.00,CLR,,0.00,WeatherDisplay:10.37,2013-04-19 04:43:00,
2013-04-18 21:44:00,58.8,34.5,30.00,East,90,1.1,0.0,40,0.00,CLR,,0.00,WeatherDisplay:10.37,2013-04-19 04:44:00,
2013-04-18 21:47:00,58.8,34.5,30.00,East,90,1.1,0.0,40,0.00,CLR,,0.00,WeatherDisplay:10.37,2013-04-19 04:47:00,
2013-04-18 21:48:00,58.8,34.5,30.00,East,90,1.1,0.0,40,0.00,CLR,,0.00,WeatherDisplay:10.37,2013-04-19 04:48:00,
2013-04-18 21:49:00,58.8,34.5,30.00,East,90,1.1,0.0,40,0.00,CLR,,0.00,WeatherDisplay:10.37,2013-04-19 04:49:00,
2013-04-18 21:53:00,58.8,34.5,30.00,East,90,1.1,0.0,40,0.00,CLR,,0.00,WeatherDisplay:10.37,2013-04-19 04:53:00,
2013-04-18 21:54:00,58.8,34.5,30.00,East,90,1.1,0.0,40,0.00,CLR,,0.00,WeatherDisplay:10.37,2013-04-19 04:54:00,
2013-04-18 21:58:00,58.8,34.5,30.00,East,90,1.1,0.0,40,0.00,CLR,,0.00,WeatherDisplay:10.37,2013-04-19 04:58:00,
2013-04-18 21:59:00,58.8,34.5,30.00,East,90,1.1,0.0,40,0.00,CLR,,0.00,WeatherDisplay:10.37,2013-04-19 04:59:00,
2013-04-18 22:03:00,58.8,34.5,30.00,East,90,1.1,0.0,40,0.00,CLR,,0.00,WeatherDisplay:10.37,2013-04-19 05:03:00,
2013-04-18 22:04:00,58.8,34.5,30.00,East,90,1.1,0.0,40,0.00,CLR,,0.00,WeatherDisplay:10.37,2013-04-19 05:04:00,
2013-04-18 22:05:00,58.8,34.5,30.00,East,90,1.1,0.0,40,0.00,CLR,,0.00,WeatherDisplay:10.37,2013-04-19 05:05:00,
2013-04-18 22:09:00,58.8,34.5,30.00,East,90,1.1,0.0,40,0.00,CLR,,0.00,WeatherDisplay:10.37,2013-04-19 05:09:00,
2013-04-18 22:10:00,58.8,34.5,30.00,East,90,1.1,0.0,40,0.00,CLR,,0.00,WeatherDisplay:10.37,2013-04-19 05:10:00,
2013-04-18 22:14:00,58.8,34.5,30.00,East,90,1.1,0.0,40,0.00,CLR,,0.00,WeatherDisplay:10.37,2013-04-19 05:14:00,
2013-04-18 22:15:00,58.8,34.5,30.00,East,90,1.1,0.0,40,0.00,CLR,,0.00,WeatherDisplay:10.37,2013-04-19 05:15:00,
2013-04-18 22:19:00,58.8,34.5,30.00,East,90,1.1,0.0,40,0.00,CLR,,0.00,WeatherDisplay:10.37,2013-04-19 05:19:00,
2013-04-18 22:20:00,58.8,34.5,30.00,East,90,1.1,0.0,40,0.00,CLR,,0.00,WeatherDisplay:10.37,2013-04-19 05:20:00,
2013-04-18 22:24:00,58.8,34.5,30.00,East,90,1.1,0.0,40,0.00,CLR,,0.00,WeatherDisplay:10.37,2013-04-19 05:24:00,
2013-04-18 22:25:00,58.8,34.5,30.00,East,90,1.1,0.0,40,0.00,CLR,,0.00,WeatherDisplay:10.37,2013-04-19 05:25:00,
2013-04-18 22:26:00,58.8,34.5,30.00,East,90,1.1,0.0,40,0.00,CLR,,0.00,WeatherDisplay:10.37,2013-04-19 05:26:00,
2013-04-18 22:30:00,58.8,34.5,30.00,East,90,1.1,0.0,40,0.00,CLR,,0.00,WeatherDisplay:10.37,2013-04-19 05:30:00,
2013-04-18 22:31:00,58.8,34.5,30.00,East,90,1.1,0.0,40,0.00,CLR,,0.00,WeatherDisplay:10.37,2013-04-19 05:31:00,
2013-04-18 22:35:00,58.8,34.5,30.00,East,90,1.1,0.0,40,0.00,CLR,,0.00,WeatherDisplay:10.37,2013-04-19 05:35:00,
2013-04-18 22:36:00,58.8,34.5,30.00,East,90,1.1,0.0,40,0.00,CLR,,0.00,WeatherDisplay:10.37,2013-04-19 05:36:00,
2013-04-18 22:40:00,58.8,34.5,30.00,East,90,1.1,0.0,40,0.00,CLR,,0.00,WeatherDisplay:10.37,2013-04-19 05:40:00,
2013-04-18 22:41:00,58.8,34.5,30.00,East,90,1.1,0.0,40,0.00,CLR,,0.00,WeatherDisplay:10.37,2013-04-19 05:41:00,
2013-04-18 22:45:00,58.8,34.5,30.00,East,90,1.1,0.0,40,0.00,CLR,,0.00,WeatherDisplay:10.37,2013-04-19 05:45:00,
2013-04-18 22:46:00,58.8,34.5,30.00,East,90,1.1,0.0,40,0.00,CLR,,0.00,WeatherDisplay:10.37,2013-04-19 05:46:00,
2013-04-18 22:47:00,58.8,34.5,30.00,East,90,1.1,0.0,40,0.00,CLR,,0.00,WeatherDisplay:10.37,2013-04-19 05:47:00,
2013-04-18 22:50:00,58.8,34.5,30.00,East,90,1.1,0.0,40,0.00,CLR,,0.00,WeatherDisplay:10.37,2013-04-19 05:50:00,
2013-04-18 22:51:00,58.8,34.5,30.00,East,90,1.1,0.0,40,0.00,CLR,,0.00,WeatherDisplay:10.37,2013-04-19 05:51:00,
2013-04-18 22:52:00,58.8,34.5,30.00,East,90,1.1,0.0,40,0.00,CLR,,0.00,WeatherDisplay:10.37,2013-04-19 05:52:00,
2013-04-18 22:55:00,58.8,34.5,30.00,East,90,1.1,0.0,40,0.00,CLR,,0.00,WeatherDisplay:10.37,2013-04-19 05:55:00,
2013-04-18 22:56:00,58.8,34.5,30.00,East,90,1.1,0.0,40,0.00,CLR,,0.00,WeatherDisplay:10.37,2013-04-19 05:56:00,
2013-04-18 22:57:00,58.8,34.5,30.00,East,90,1.1,0.0,40,0.00,CLR,,0.00,WeatherDisplay:10.37,2013-04-19 05:57:00,
2013-04-18 23:00:00,58.8,34.5,30.00,East,90,1.1,0.0,40,0.00,CLR,,0.00,WeatherDisplay:10.37,2013-04-19 06:00:00,
2013-04-18 23:01:00,58.8,34.5,30.00,East,90,1.1,0.0,40,0.00,CLR,,0.00,WeatherDisplay:10.37,2013-04-19 06:01:00,
2013-04-18 23:02:00,58.8,34.5,30.00,East,90,1.1,0.0,40,0.00,CLR,,0.00,WeatherDisplay:10.37,2013-04-19 06:02:00,
2013-04-18 23:05:00,58.8,34.5,30.00,East,90,1.1,0.0,40,0.00,CLR,,0.00,WeatherDisplay:10.37,2013-04-19 06:05:00,
2013-04-18 23:06:00,58.8,34.5,30.00,East,90,1.1,0.0,40,0.00,CLR,,0.00,WeatherDisplay:10.37,2013-04-19 06:06:00,
2013-04-18 23:07:00,58.8,34.5,30.00,East,90,1.1,0.0,40,0.00,CLR,,0.00,WeatherDisplay:10.37,2013-04-19 06:07:00,
2013-04-18 23:10:00,58.8,34.5,30.00,East,90,1.1,0.0,40,0.00,CLR,,0.00,WeatherDisplay:10.37,2013-04-19 06:10:00,
2013-04-18 23:11:00,58.8,34.5,30.00,East,90,1.1,0.0,40,0.00,CLR,,0.00,WeatherDisplay:10.37,2013-04-19 06:11:00,
2013-04-18 23:12:00,58.8,34.5,30.00,East,90,1.1,0.0,40,0.00,CLR,,0.00,WeatherDisplay:10.37,2013-04-19 06:12:00,
2013-04-18 23:15:00,58.8,34.5,30.00,East,90,1.1,0.0,40,0.00,CLR,,0.00,WeatherDisplay:10.37,2013-04-19 06:15:00,
2013-04-18 23:16:00,58.8,34.5,30.00,East,90,1.1,0.0,40,0.00,CLR,,0.00,WeatherDisplay:10.37,2013-04-19 06:16:00,
2013-04-18 23:17:00,58.8,34.5,30.00,East,90,1.1,0.0,40,0.00,CLR,,0.00,WeatherDisplay:10.37,2013-04-19 06:17:00,
2013-04-18 23:21:00,58.8,34.5,30.00,East,90,1.1,0.0,40,0.00,CLR,,0.00,WeatherDisplay:10.37,2013-04-19 06:21:00,
2013-04-18 23:22:00,58.8,34.5,30.00,East,90,1.1,0.0,40,0.00,CLR,,0.00,WeatherDisplay:10.37,2013-04-19 06:22:00,
2013-04-18 23:23:00,58.8,34.5,30.00,East,90,1.1,0.0,40,0.00,CLR,,0.00,WeatherDisplay:10.37,2013-04-19 06:23:00,
2013-04-18 23:26:00,58.8,34.5,30.00,East,90,1.1,0.0,40,0.00,CLR,,0.00,WeatherDisplay:10.37,2013-04-19 06:26:00,
2013-04-18 23:27:00,58.8,34.5,30.00,East,90,1.1,0.0,40,0.00,CLR,,0.00,WeatherDisplay:10.37,2013-04-19 06:27:00,
2013-04-18 23:28:00,58.8,34.5,30.00,East,90,1.1,0.0,40,0.00,CLR,,0.00,WeatherDisplay:10.37,2013-04-19 06:28:00,
2013-04-18 23:31:00,58.8,34.5,30.00,East,90,1.1,0.0,40,0.00,CLR,,0.00,WeatherDisplay:10.37,2013-04-19 06:31:00,
2013-04-18 23:32:00,58.8,34.5,30.00,East,90,1.1,0.0,40,0.00,CLR,,0.00,WeatherDisplay:10.37,2013-04-19 06:32:00,
2013-04-18 23:33:00,58.8,34.5,30.00,East,90,1.1,0.0,40,0.00,CLR,,0.00,WeatherDisplay:10.37,2013-04-19 06:33:00,
2013-04-18 23:36:00,58.8,34.5,30.00,East,90,1.1,0.0,40,0.00,CLR,,0.00,WeatherDisplay:10.37,2013-04-19 06:36:00,
2013-04-18 23:37:00,58.8,34.5,30.00,East,90,1.1,0.0,40,0.00,CLR,,0.00,WeatherDisplay:10.37,2013-04-19 06:37:00,
2013-04-18 23:38:00,58.8,34.5,30.00,East,90,1.1,0.0,40,0.00,CLR,,0.00,WeatherDisplay:10.37,2013-04-19 06:38:00,
2013-04-18 23:41:00,58.8,34.5,30.00,East,90,1.1,0.0,40,0.00,CLR,,0.00,WeatherDisplay:10.37,2013-04-19 06:41:00,
2013-04-18 23:42:00,58.8,34.5,30.00,East,90,1.1,0.0,40,0.00,CLR,,0.00,WeatherDisplay:10.37,2013-04-19 06:42:00,
2013-04-18 23:43:00,58.8,34.5,30.00,East,90,1.1,0.0,40,0.00,CLR,,0.00,WeatherDisplay:10.37,2013-04-19 06:43:00,
2013-04-18 23:46:00,58.8,34.5,30.00,East,90,1.1,0.0,40,0.00,CLR,,0.00,WeatherDisplay:10.37,2013-04-19 06:46:00,
2013-04-18 23:47:00,58.8,34.5,30.00,East,90,1.1,0.0,40,0.00,CLR,,0.00,WeatherDisplay:10.37,2013-04-19 06:47:00,
2013-04-18 23:48:00,58.8,34.5,30.00,East,90,1.1,0.0,40,0.00,CLR,,0.00,WeatherDisplay:10.37,2013-04-19 06:48:00,
2013-04-18 23:49:00,58.8,34.5,30.00,East,90,1.1,0.0,40,0.00,CLR,,0.00,WeatherDisplay:10.37,2013-04-19 06:49:00,
2013-04-18 23:51:00,58.8,34.5,30.00,East,90,1.1,0.0,40,0.00,CLR,,0.00,WeatherDisplay:10.37,2013-04-19 06:51:00,
2013-04-18 23:52:00,58.8,34.5,30.00,East,90,1.1,0.0,40,0.00,CLR,,0.00,WeatherDisplay:10.37,2013-04-19 06:52:00,
2013-04-18 23:53:00,58.8,34.5,30.00,East,90,1.1,0.0,40,0.00,CLR,,0.00,WeatherDisplay:10.37,2013-04-19 06:53:00,
2013-04-18 23:54:00,58.8,34.5,30.00,East,90,1.1,0.0,40,0.00,CLR,,0.00,WeatherDisplay:10.37,2013-04-19 06:54:00,